<?xml version="1.0" encoding="UTF-8"?>
<gpx version="1.0" creator="Trackator" xmlns:xsi="http://www.w3.org/2001/XMLSchema-instance" xmlns="http://www.topografix.com/GPX/1/0" xmlns:topografix="http://www.topografix.com/GPX/Private/TopoGrafix/0/1" xsi:schemaLocation="http://www.topografix.com/GPX/1/0 http://www.topografix.com/GPX/1/0/gpx.xsd http://www.topografix.com/GPX/Private/TopoGrafix/0/1 http://www.topografix.com/GPX/Private/TopoGrafix/0/1/topografix.xsd">
<metadata>
<link href="http://www.trackator.com">
<text>Trackator</text>
</link>
</metadata>
<time>2017-03-01T:19:49Z</time>
<trk>
<name>Track: </name>
<desc>Hiking</desc>
<trkseg>
<trkpt lat="40.630221666666664" lon="-3.1600249999999996">
<ele>749</ele>
<time>2017-03-01T:19:49Z</time>
</trkpt>
<trkpt lat="40.630199999999995" lon="-3.160013333333333">
<ele>752</ele>
<time>2017-03-01T10:19:51Z</time>
</trkpt>
<trkpt lat="40.63032333333333" lon="-3.159895">
<ele>736</ele>
<time>2017-03-01T10:21:41Z</time>
</trkpt>
<trkpt lat="40.63033166666666" lon="-3.159873333333333">
<ele>736</ele>
<time>2017-03-01T10:21:43Z</time>
</trkpt>
<trkpt lat="40.630334999999995" lon="-3.1599049999999997">
<ele>736</ele>
<time>2017-03-01T10:21:45Z</time>
</trkpt>
<trkpt lat="40.630226666666665" lon="-3.1599933333333334">
<ele>736</ele>
<time>2017-03-01T10:21:47Z</time>
</trkpt>
<trkpt lat="40.63024333333333" lon="-3.159945">
<ele>736</ele>
<time>2017-03-01T10:21:49Z</time>
</trkpt>
<trkpt lat="40.630183333333335" lon="-3.160003333333333">
<ele>759</ele>
<time>2017-03-01T10:19:53Z</time>
</trkpt>
<trkpt lat="40.63019333333333" lon="-3.160003333333333">
<ele>763</ele>
<time>2017-03-01T10:19:55Z</time>
</trkpt>
<trkpt lat="40.63021333333334" lon="-3.159991666666666">
<ele>765</ele>
<time>2017-03-01T10:19:57Z</time>
</trkpt>
<trkpt lat="40.630225" lon="-3.1599700000000004">
<ele>767</ele>
<time>2017-03-01T10:19:59Z</time>
</trkpt>
<trkpt lat="40.630228333333335" lon="-3.1599416666666666">
<ele>768</ele>
<time>2017-03-01T10:20:01Z</time>
</trkpt>
<trkpt lat="40.63021833333333" lon="-3.159936666666667">
<ele>769</ele>
<time>2017-03-01T10:20:03Z</time>
</trkpt>
<trkpt lat="40.63023666666666" lon="-3.15999">
<ele>770</ele>
<time>2017-03-01T10:20:05Z</time>
</trkpt>
<trkpt lat="40.63018" lon="-3.160086666666667">
<ele>769</ele>
<time>2017-03-01T10:20:07Z</time>
</trkpt>
<trkpt lat="40.63015666666667" lon="-3.160093333333333">
<ele>770</ele>
<time>2017-03-01T10:20:09Z</time>
</trkpt>
<trkpt lat="40.630136666666665" lon="-3.1600816666666662">
<ele>770</ele>
<time>2017-03-01T10:20:11Z</time>
</trkpt>
<trkpt lat="40.63014833333333" lon="-3.1600816666666662">
<ele>766</ele>
<time>2017-03-01T10:20:13Z</time>
</trkpt>
<trkpt lat="40.630138333333335" lon="-3.160078333333333">
<ele>763</ele>
<time>2017-03-01T10:20:15Z</time>
</trkpt>
<trkpt lat="40.630113333333334" lon="-3.1600699999999997">
<ele>762</ele>
<time>2017-03-01T10:20:17Z</time>
</trkpt>
<trkpt lat="40.63026166666667" lon="-3.1598083333333333">
<ele>737</ele>
<time>2017-03-01T10:21:55Z</time>
</trkpt>
<trkpt lat="40.63013333333333" lon="-3.160033333333333">
<ele>760</ele>
<time>2017-03-01T10:20:19Z</time>
</trkpt>
<trkpt lat="40.63017" lon="-3.1600249999999996">
<ele>756</ele>
<time>2017-03-01T10:20:21Z</time>
</trkpt>
<trkpt lat="40.63026333333333" lon="-3.159795">
<ele>737</ele>
<time>2017-03-01T10:21:57Z</time>
</trkpt>
<trkpt lat="40.630176666666664" lon="-3.1600000000000006">
<ele>755</ele>
<time>2017-03-01T10:20:23Z</time>
</trkpt>
<trkpt lat="40.630248333333334" lon="-3.1599550000000005">
<ele>751</ele>
<time>2017-03-01T10:20:25Z</time>
</trkpt>
<trkpt lat="40.630266666666664" lon="-3.159873333333333">
<ele>750</ele>
<time>2017-03-01T10:20:27Z</time>
</trkpt>
<trkpt lat="40.63036666666667" lon="-3.15973">
<ele>736</ele>
<time>2017-03-01T10:22:03Z</time>
</trkpt>
<trkpt lat="40.630325" lon="-3.159713333333334">
<ele>736</ele>
<time>2017-03-01T10:22:05Z</time>
</trkpt>
<trkpt lat="40.630363333333335" lon="-3.1596616666666666">
<ele>736</ele>
<time>2017-03-01T10:22:07Z</time>
</trkpt>
<trkpt lat="40.63034833333334" lon="-3.15984">
<ele>745</ele>
<time>2017-03-01T10:20:29Z</time>
</trkpt>
<trkpt lat="40.63032166666667" lon="-3.1598249999999997">
<ele>742</ele>
<time>2017-03-01T10:20:31Z</time>
</trkpt>
<trkpt lat="40.630355" lon="-3.1597283333333337">
<ele>736</ele>
<time>2017-03-01T10:22:11Z</time>
</trkpt>
<trkpt lat="40.63032" lon="-3.159803333333333">
<ele>743</ele>
<time>2017-03-01T10:20:33Z</time>
</trkpt>
<trkpt lat="40.63037333333333" lon="-3.1598066666666664">
<ele>743</ele>
<time>2017-03-01T10:20:35Z</time>
</trkpt>
<trkpt lat="40.63042166666666" lon="-3.1597199999999996">
<ele>737</ele>
<time>2017-03-01T10:22:15Z</time>
</trkpt>
<trkpt lat="40.63042166666666" lon="-3.1597199999999996">
<ele>737</ele>
<time>2017-03-01T10:22:17Z</time>
</trkpt>
<trkpt lat="40.63039166666667" lon="-3.1598683333333337">
<ele>742</ele>
<time>2017-03-01T10:20:37Z</time>
</trkpt>
<trkpt lat="40.63041666666666" lon="-3.159936666666667">
<ele>741</ele>
<time>2017-03-01T10:20:39Z</time>
</trkpt>
<trkpt lat="40.63042333333333" lon="-3.1599566666666665">
<ele>740</ele>
<time>2017-03-01T10:20:41Z</time>
</trkpt>
<trkpt lat="40.63042166666666" lon="-3.1597199999999996">
<ele>737</ele>
<time>2017-03-01T10:22:19Z</time>
</trkpt>
<trkpt lat="40.630375" lon="-3.1599199999999996">
<ele>739</ele>
<time>2017-03-01T10:20:43Z</time>
</trkpt>
<trkpt lat="40.63036833333333" lon="-3.159715">
<ele>737</ele>
<time>2017-03-01T10:22:21Z</time>
</trkpt>
<trkpt lat="40.63028" lon="-3.1599333333333335">
<ele>737</ele>
<time>2017-03-01T10:20:47Z</time>
</trkpt>
<trkpt lat="40.63036666666667" lon="-3.1599799999999996">
<ele>737</ele>
<time>2017-03-01T10:20:49Z</time>
</trkpt>
<trkpt lat="40.630375" lon="-3.15981">
<ele>734</ele>
<time>2017-03-01T10:22:23Z</time>
</trkpt>
<trkpt lat="40.630375" lon="-3.15981">
<ele>734</ele>
<time>2017-03-01T10:22:25Z</time>
</trkpt>
<trkpt lat="40.63050333333333" lon="-3.159718333333333">
<ele>726</ele>
<time>2017-03-01T10:22:27Z</time>
</trkpt>
<trkpt lat="40.63053" lon="-3.1596583333333332">
<ele>724</ele>
<time>2017-03-01T10:22:29Z</time>
</trkpt>
<trkpt lat="40.630543333333335" lon="-3.159628333333333">
<ele>724</ele>
<time>2017-03-01T10:22:31Z</time>
</trkpt>
<trkpt lat="40.630446666666664" lon="-3.1603250000000003">
<ele>735</ele>
<time>2017-03-01T10:20:55Z</time>
</trkpt>
<trkpt lat="40.63052833333334" lon="-3.159573333333334">
<ele>723</ele>
<time>2017-03-01T10:22:33Z</time>
</trkpt>
<trkpt lat="40.630520000000004" lon="-3.1595349999999995">
<ele>723</ele>
<time>2017-03-01T10:22:35Z</time>
</trkpt>
<trkpt lat="40.630520000000004" lon="-3.159513333333334">
<ele>724</ele>
<time>2017-03-01T10:22:37Z</time>
</trkpt>
<trkpt lat="40.63052666666667" lon="-3.159505">
<ele>724</ele>
<time>2017-03-01T10:22:39Z</time>
</trkpt>
<trkpt lat="40.630595" lon="-3.1605266666666667">
<ele>734</ele>
<time>2017-03-01T10:21:01Z</time>
</trkpt>
<trkpt lat="40.630541666666666" lon="-3.1594800000000003">
<ele>724</ele>
<time>2017-03-01T10:22:43Z</time>
</trkpt>
<trkpt lat="40.63023666666666" lon="-3.1601349999999995">
<ele>730</ele>
<time>2017-03-01T10:21:25Z</time>
</trkpt>
<trkpt lat="40.63055333333333" lon="-3.159455">
<ele>724</ele>
<time>2017-03-01T10:22:47Z</time>
</trkpt>
<trkpt lat="40.63028833333333" lon="-3.16015">
<ele>732</ele>
<time>2017-03-01T10:21:27Z</time>
</trkpt>
<trkpt lat="40.63026" lon="-3.1602000000000006">
<ele>734</ele>
<time>2017-03-01T10:21:29Z</time>
</trkpt>
<trkpt lat="40.63023666666666" lon="-3.160286666666667">
<ele>734</ele>
<time>2017-03-01T10:21:31Z</time>
</trkpt>
<trkpt lat="40.630535" lon="-3.1595116666666665">
<ele>725</ele>
<time>2017-03-01T10:22:55Z</time>
</trkpt>
<trkpt lat="40.63016666666667" lon="-3.160298333333334">
<ele>735</ele>
<time>2017-03-01T10:21:35Z</time>
</trkpt>
<trkpt lat="40.63023333333333" lon="-3.159981666666667">
<ele>736</ele>
<time>2017-03-01T10:21:37Z</time>
</trkpt>
<trkpt lat="40.630446666666664" lon="-3.1594083333333334">
<ele>724</ele>
<time>2017-03-01T10:23:03Z</time>
</trkpt>
<trkpt lat="40.63030166666667" lon="-3.1599333333333335">
<ele>736</ele>
<time>2017-03-01T10:21:39Z</time>
</trkpt>
<trkpt lat="40.630446666666664" lon="-3.1594083333333334">
<ele>724</ele>
<time>2017-03-01T10:23:05Z</time>
</trkpt>
<trkpt lat="40.63032333333333" lon="-3.159895">
<ele>736</ele>
<time>2017-03-01T10:21:41Z</time>
</trkpt>
<trkpt lat="40.63048666666667" lon="-3.1593799999999996">
<ele>724</ele>
<time>2017-03-01T10:23:07Z</time>
</trkpt>
<trkpt lat="40.630226666666665" lon="-3.1599933333333334">
<ele>736</ele>
<time>2017-03-01T10:21:47Z</time>
</trkpt>
<trkpt lat="40.6305" lon="-3.1593499999999994">
<ele>724</ele>
<time>2017-03-01T10:23:09Z</time>
</trkpt>
<trkpt lat="40.63052833333334" lon="-3.1593499999999994">
<ele>724</ele>
<time>2017-03-01T10:23:11Z</time>
</trkpt>
<trkpt lat="40.630554999999994" lon="-3.1593533333333332">
<ele>723</ele>
<time>2017-03-01T10:23:13Z</time>
</trkpt>
<trkpt lat="40.63056166666667" lon="-3.1593416666666667">
<ele>723</ele>
<time>2017-03-01T10:23:15Z</time>
</trkpt>
<trkpt lat="40.63024333333333" lon="-3.159945">
<ele>736</ele>
<time>2017-03-01T10:21:49Z</time>
</trkpt>
<trkpt lat="40.63056666666667" lon="-3.1593299999999997">
<ele>723</ele>
<time>2017-03-01T10:23:17Z</time>
</trkpt>
<trkpt lat="40.63062333333333" lon="-3.1593199999999997">
<ele>722</ele>
<time>2017-03-01T10:23:19Z</time>
</trkpt>
<trkpt lat="40.63064333333333" lon="-3.1592983333333335">
<ele>722</ele>
<time>2017-03-01T10:23:21Z</time>
</trkpt>
<trkpt lat="40.63064166666666" lon="-3.1592316666666664">
<ele>722</ele>
<time>2017-03-01T10:23:23Z</time>
</trkpt>
<trkpt lat="40.63026" lon="-3.1598466666666667">
<ele>737</ele>
<time>2017-03-01T10:21:53Z</time>
</trkpt>
<trkpt lat="40.630646666666664" lon="-3.1591949999999995">
<ele>722</ele>
<time>2017-03-01T10:23:25Z</time>
</trkpt>
<trkpt lat="40.63026166666667" lon="-3.1598083333333333">
<ele>737</ele>
<time>2017-03-01T10:21:55Z</time>
</trkpt>
<trkpt lat="40.630625" lon="-3.159181666666667">
<ele>722</ele>
<time>2017-03-01T10:23:29Z</time>
</trkpt>
<trkpt lat="40.63026333333333" lon="-3.159795">
<ele>737</ele>
<time>2017-03-01T10:21:57Z</time>
</trkpt>
<trkpt lat="40.63031" lon="-3.1597616666666664">
<ele>738</ele>
<time>2017-03-01T10:21:59Z</time>
</trkpt>
<trkpt lat="40.63063666666667" lon="-3.15921">
<ele>722</ele>
<time>2017-03-01T10:23:31Z</time>
</trkpt>
<trkpt lat="40.63066833333333" lon="-3.15922">
<ele>721</ele>
<time>2017-03-01T10:23:33Z</time>
</trkpt>
<trkpt lat="40.63036666666667" lon="-3.15973">
<ele>736</ele>
<time>2017-03-01T10:22:03Z</time>
</trkpt>
<trkpt lat="40.63080333333333" lon="-3.1594800000000003">
<ele>721</ele>
<time>2017-03-01T10:23:37Z</time>
</trkpt>
<trkpt lat="40.630851666666665" lon="-3.159641666666667">
<ele>720</ele>
<time>2017-03-01T10:23:39Z</time>
</trkpt>
<trkpt lat="40.63089166666667" lon="-3.15976">
<ele>720</ele>
<time>2017-03-01T10:23:41Z</time>
</trkpt>
<trkpt lat="40.63086833333333" lon="-3.159826666666667">
<ele>721</ele>
<time>2017-03-01T10:23:43Z</time>
</trkpt>
<trkpt lat="40.630829999999996" lon="-3.159841666666667">
<ele>722</ele>
<time>2017-03-01T10:23:45Z</time>
</trkpt>
<trkpt lat="40.63078333333333" lon="-3.1597766666666662">
<ele>722</ele>
<time>2017-03-01T10:23:47Z</time>
</trkpt>
<trkpt lat="40.630761666666665" lon="-3.1597733333333338">
<ele>723</ele>
<time>2017-03-01T10:23:49Z</time>
</trkpt>
<trkpt lat="40.63074666666667" lon="-3.1598216666666663">
<ele>723</ele>
<time>2017-03-01T10:23:51Z</time>
</trkpt>
<trkpt lat="40.630725" lon="-3.159856666666667">
<ele>723</ele>
<time>2017-03-01T10:23:53Z</time>
</trkpt>
<trkpt lat="40.63068333333333" lon="-3.1598533333333334">
<ele>724</ele>
<time>2017-03-01T10:23:55Z</time>
</trkpt>
<trkpt lat="40.630646666666664" lon="-3.159831666666667">
<ele>724</ele>
<time>2017-03-01T10:23:57Z</time>
</trkpt>
<trkpt lat="40.63053" lon="-3.1597116666666665">
<ele>724</ele>
<time>2017-03-01T10:23:59Z</time>
</trkpt>
<trkpt lat="40.63050333333333" lon="-3.159718333333333">
<ele>726</ele>
<time>2017-03-01T10:22:27Z</time>
</trkpt>
<trkpt lat="40.63053" lon="-3.1596583333333332">
<ele>724</ele>
<time>2017-03-01T10:22:29Z</time>
</trkpt>
<trkpt lat="40.630543333333335" lon="-3.159628333333333">
<ele>724</ele>
<time>2017-03-01T10:22:31Z</time>
</trkpt>
<trkpt lat="40.630405" lon="-3.1596666666666664">
<ele>723</ele>
<time>2017-03-01T10:24:05Z</time>
</trkpt>
<trkpt lat="40.63042333333333" lon="-3.15965">
<ele>723</ele>
<time>2017-03-01T10:24:07Z</time>
</trkpt>
<trkpt lat="40.63041333333333" lon="-3.1596466666666667">
<ele>723</ele>
<time>2017-03-01T10:24:09Z</time>
</trkpt>
<trkpt lat="40.63039666666667" lon="-3.1597049999999998">
<ele>722</ele>
<time>2017-03-01T10:24:11Z</time>
</trkpt>
<trkpt lat="40.63036833333333" lon="-3.159745">
<ele>722</ele>
<time>2017-03-01T10:24:13Z</time>
</trkpt>
<trkpt lat="40.63054666666667" lon="-3.1594666666666664">
<ele>724</ele>
<time>2017-03-01T10:22:45Z</time>
</trkpt>
<trkpt lat="40.63037166666666" lon="-3.15985">
<ele>722</ele>
<time>2017-03-01T10:24:19Z</time>
</trkpt>
<trkpt lat="40.630408333333335" lon="-3.1599716666666664">
<ele>722</ele>
<time>2017-03-01T10:24:21Z</time>
</trkpt>
<trkpt lat="40.63037666666666" lon="-3.1600083333333333">
<ele>722</ele>
<time>2017-03-01T10:24:23Z</time>
</trkpt>
<trkpt lat="40.63055666666666" lon="-3.159428333333333">
<ele>724</ele>
<time>2017-03-01T10:22:51Z</time>
</trkpt>
<trkpt lat="40.630505" lon="-3.1595">
<ele>725</ele>
<time>2017-03-01T10:22:53Z</time>
</trkpt>
<trkpt lat="40.630535" lon="-3.1595116666666665">
<ele>725</ele>
<time>2017-03-01T10:22:55Z</time>
</trkpt>
<trkpt lat="40.63044333333333" lon="-3.1595033333333333">
<ele>725</ele>
<time>2017-03-01T10:22:57Z</time>
</trkpt>
<trkpt lat="40.630215" lon="-3.160041666666667">
<ele>724</ele>
<time>2017-03-01T10:24:29Z</time>
</trkpt>
<trkpt lat="40.630226666666665" lon="-3.159996666666667">
<ele>724</ele>
<time>2017-03-01T10:24:31Z</time>
</trkpt>
<trkpt lat="40.63042666666667" lon="-3.1594249999999997">
<ele>725</ele>
<time>2017-03-01T10:22:59Z</time>
</trkpt>
<trkpt lat="40.63023666666666" lon="-3.1599866666666667">
<ele>725</ele>
<time>2017-03-01T10:24:33Z</time>
</trkpt>
<trkpt lat="40.630446666666664" lon="-3.1594083333333334">
<ele>724</ele>
<time>2017-03-01T10:23:05Z</time>
</trkpt>
<trkpt lat="40.63048666666667" lon="-3.1593799999999996">
<ele>724</ele>
<time>2017-03-01T10:23:07Z</time>
</trkpt>
<trkpt lat="40.630244999999995" lon="-3.15996">
<ele>726</ele>
<time>2017-03-01T10:24:37Z</time>
</trkpt>
<trkpt lat="40.630250000000004" lon="-3.159921666666667">
<ele>726</ele>
<time>2017-03-01T10:24:39Z</time>
</trkpt>
<trkpt lat="40.630271666666665" lon="-3.159885">
<ele>727</ele>
<time>2017-03-01T10:24:41Z</time>
</trkpt>
<trkpt lat="40.630271666666665" lon="-3.159895">
<ele>728</ele>
<time>2017-03-01T10:24:43Z</time>
</trkpt>
<trkpt lat="40.63056166666667" lon="-3.1593416666666667">
<ele>723</ele>
<time>2017-03-01T10:23:15Z</time>
</trkpt>
<trkpt lat="40.63056666666667" lon="-3.1593299999999997">
<ele>723</ele>
<time>2017-03-01T10:23:17Z</time>
</trkpt>
<trkpt lat="40.630271666666665" lon="-3.1599416666666666">
<ele>729</ele>
<time>2017-03-01T10:24:47Z</time>
</trkpt>
<trkpt lat="40.63027666666667" lon="-3.15996">
<ele>730</ele>
<time>2017-03-01T10:24:49Z</time>
</trkpt>
<trkpt lat="40.63064166666666" lon="-3.1592316666666664">
<ele>722</ele>
<time>2017-03-01T10:23:23Z</time>
</trkpt>
<trkpt lat="40.63030333333334" lon="-3.1599799999999996">
<ele>732</ele>
<time>2017-03-01T10:24:53Z</time>
</trkpt>
<trkpt lat="40.63032333333333" lon="-3.15996">
<ele>733</ele>
<time>2017-03-01T10:24:55Z</time>
</trkpt>
<trkpt lat="40.63033" lon="-3.1599433333333335">
<ele>734</ele>
<time>2017-03-01T10:24:57Z</time>
</trkpt>
<trkpt lat="40.630315" lon="-3.1599416666666666">
<ele>734</ele>
<time>2017-03-01T10:24:59Z</time>
</trkpt>
<trkpt lat="40.630315" lon="-3.159921666666667">
<ele>735</ele>
<time>2017-03-01T10:25:01Z</time>
</trkpt>
<trkpt lat="40.63034666666667" lon="-3.159871666666667">
<ele>736</ele>
<time>2017-03-01T10:25:03Z</time>
</trkpt>
<trkpt lat="40.63068666666666" lon="-3.1593283333333337">
<ele>721</ele>
<time>2017-03-01T10:23:35Z</time>
</trkpt>
<trkpt lat="40.63080333333333" lon="-3.1594800000000003">
<ele>721</ele>
<time>2017-03-01T10:23:37Z</time>
</trkpt>
<trkpt lat="40.630386666666666" lon="-3.1597933333333335">
<ele>739</ele>
<time>2017-03-01T10:25:11Z</time>
</trkpt>
<trkpt lat="40.63037" lon="-3.1598016666666666">
<ele>740</ele>
<time>2017-03-01T10:25:13Z</time>
</trkpt>
<trkpt lat="40.630851666666665" lon="-3.159641666666667">
<ele>720</ele>
<time>2017-03-01T10:23:39Z</time>
</trkpt>
<trkpt lat="40.63035333333333" lon="-3.1598450000000002">
<ele>742</ele>
<time>2017-03-01T10:25:17Z</time>
</trkpt>
<trkpt lat="40.63089166666667" lon="-3.15976">
<ele>720</ele>
<time>2017-03-01T10:23:41Z</time>
</trkpt>
<trkpt lat="40.63086833333333" lon="-3.159826666666667">
<ele>721</ele>
<time>2017-03-01T10:23:43Z</time>
</trkpt>
<trkpt lat="40.630334999999995" lon="-3.1598800000000002">
<ele>744</ele>
<time>2017-03-01T10:25:21Z</time>
</trkpt>
<trkpt lat="40.63033" lon="-3.1598699999999997">
<ele>745</ele>
<time>2017-03-01T10:25:23Z</time>
</trkpt>
<trkpt lat="40.63078333333333" lon="-3.1597766666666662">
<ele>722</ele>
<time>2017-03-01T10:23:47Z</time>
</trkpt>
<trkpt lat="40.630761666666665" lon="-3.1597733333333338">
<ele>723</ele>
<time>2017-03-01T10:23:49Z</time>
</trkpt>
<trkpt lat="40.630691666666664" lon="-3.159921666666667">
<ele>742</ele>
<time>2017-03-01T10:25:53Z</time>
</trkpt>
<trkpt lat="40.630739999999996" lon="-3.1598683333333337">
<ele>735</ele>
<time>2017-03-01T10:25:55Z</time>
</trkpt>
<trkpt lat="40.63075666666667" lon="-3.159813333333333">
<ele>705</ele>
<time>2017-03-01T10:25:57Z</time>
</trkpt>
<trkpt lat="40.63074666666667" lon="-3.1598216666666663">
<ele>723</ele>
<time>2017-03-01T10:23:51Z</time>
</trkpt>
<trkpt lat="40.630725" lon="-3.159856666666667">
<ele>723</ele>
<time>2017-03-01T10:23:53Z</time>
</trkpt>
<trkpt lat="40.63041333333333" lon="-3.1594516666666665">
<ele>734</ele>
<time>2017-03-01T10:26:25Z</time>
</trkpt>
<trkpt lat="40.630646666666664" lon="-3.159831666666667">
<ele>724</ele>
<time>2017-03-01T10:23:57Z</time>
</trkpt>
<trkpt lat="40.63053" lon="-3.1597116666666665">
<ele>724</ele>
<time>2017-03-01T10:23:59Z</time>
</trkpt>
<trkpt lat="40.63043166666667" lon="-3.1596483333333327">
<ele>724</ele>
<time>2017-03-01T10:24:01Z</time>
</trkpt>
<trkpt lat="40.630405" lon="-3.159673333333333">
<ele>724</ele>
<time>2017-03-01T10:24:03Z</time>
</trkpt>
<trkpt lat="40.630405" lon="-3.1596666666666664">
<ele>723</ele>
<time>2017-03-01T10:24:05Z</time>
</trkpt>
<trkpt lat="40.63050166666667" lon="-3.15942">
<ele>717</ele>
<time>2017-03-01T10:26:39Z</time>
</trkpt>
<trkpt lat="40.63041333333333" lon="-3.1596466666666667">
<ele>723</ele>
<time>2017-03-01T10:24:09Z</time>
</trkpt>
<trkpt lat="40.63039666666667" lon="-3.1597049999999998">
<ele>722</ele>
<time>2017-03-01T10:24:11Z</time>
</trkpt>
<trkpt lat="40.630475000000004" lon="-3.1593483333333334">
<ele>728</ele>
<time>2017-03-01T10:26:49Z</time>
</trkpt>
<trkpt lat="40.63046666666666" lon="-3.159338333333333">
<ele>730</ele>
<time>2017-03-01T10:26:51Z</time>
</trkpt>
<trkpt lat="40.63048166666667" lon="-3.1593433333333336">
<ele>730</ele>
<time>2017-03-01T10:26:53Z</time>
</trkpt>
<trkpt lat="40.63050666666666" lon="-3.1593633333333333">
<ele>732</ele>
<time>2017-03-01T10:26:55Z</time>
</trkpt>
<trkpt lat="40.63051666666667" lon="-3.1593533333333332">
<ele>732</ele>
<time>2017-03-01T10:26:57Z</time>
</trkpt>
<trkpt lat="40.630554999999994" lon="-3.15936">
<ele>733</ele>
<time>2017-03-01T10:26:59Z</time>
</trkpt>
<trkpt lat="40.63060666666667" lon="-3.159396666666667">
<ele>733</ele>
<time>2017-03-01T10:27:01Z</time>
</trkpt>
<trkpt lat="40.630633333333336" lon="-3.159418333333333">
<ele>733</ele>
<time>2017-03-01T10:27:03Z</time>
</trkpt>
<trkpt lat="40.630676666666666" lon="-3.1594433333333334">
<ele>733</ele>
<time>2017-03-01T10:27:05Z</time>
</trkpt>
<trkpt lat="40.630698333333335" lon="-3.1594466666666667">
<ele>736</ele>
<time>2017-03-01T10:27:07Z</time>
</trkpt>
<trkpt lat="40.630235" lon="-3.1599866666666667">
<ele>725</ele>
<time>2017-03-01T10:24:35Z</time>
</trkpt>
<trkpt lat="40.630244999999995" lon="-3.15996">
<ele>726</ele>
<time>2017-03-01T10:24:37Z</time>
</trkpt>
<trkpt lat="40.630250000000004" lon="-3.159921666666667">
<ele>726</ele>
<time>2017-03-01T10:24:39Z</time>
</trkpt>
<trkpt lat="40.630705" lon="-3.1594800000000003">
<ele>739</ele>
<time>2017-03-01T10:27:15Z</time>
</trkpt>
<trkpt lat="40.630271666666665" lon="-3.159895">
<ele>728</ele>
<time>2017-03-01T10:24:43Z</time>
</trkpt>
<trkpt lat="40.63026833333333" lon="-3.159923333333333">
<ele>729</ele>
<time>2017-03-01T10:24:45Z</time>
</trkpt>
<trkpt lat="40.630271666666665" lon="-3.1599416666666666">
<ele>729</ele>
<time>2017-03-01T10:24:47Z</time>
</trkpt>
<trkpt lat="40.63027666666667" lon="-3.15996">
<ele>730</ele>
<time>2017-03-01T10:24:49Z</time>
</trkpt>
<trkpt lat="40.63028333333333" lon="-3.159953333333333">
<ele>731</ele>
<time>2017-03-01T10:24:51Z</time>
</trkpt>
<trkpt lat="40.63030333333334" lon="-3.1599799999999996">
<ele>732</ele>
<time>2017-03-01T10:24:53Z</time>
</trkpt>
<trkpt lat="40.63032333333333" lon="-3.15996">
<ele>733</ele>
<time>2017-03-01T10:24:55Z</time>
</trkpt>
<trkpt lat="40.63088833333334" lon="-3.1596583333333332">
<ele>745</ele>
<time>2017-03-01T10:27:43Z</time>
</trkpt>
<trkpt lat="40.630885" lon="-3.1596516666666665">
<ele>745</ele>
<time>2017-03-01T10:27:45Z</time>
</trkpt>
<trkpt lat="40.630871666666664" lon="-3.1596433333333334">
<ele>745</ele>
<time>2017-03-01T10:27:47Z</time>
</trkpt>
<trkpt lat="40.63034666666667" lon="-3.159871666666667">
<ele>736</ele>
<time>2017-03-01T10:25:03Z</time>
</trkpt>
<trkpt lat="40.630355" lon="-3.159833333333333">
<ele>737</ele>
<time>2017-03-01T10:25:05Z</time>
</trkpt>
<trkpt lat="40.63082166666666" lon="-3.1596600000000006">
<ele>743</ele>
<time>2017-03-01T10:27:55Z</time>
</trkpt>
<trkpt lat="40.63038166666667" lon="-3.15981">
<ele>738</ele>
<time>2017-03-01T10:25:09Z</time>
</trkpt>
<trkpt lat="40.63071" lon="-3.1597016666666673">
<ele>731</ele>
<time>2017-03-01T10:27:59Z</time>
</trkpt>
<trkpt lat="40.63037" lon="-3.1598016666666666">
<ele>740</ele>
<time>2017-03-01T10:25:13Z</time>
</trkpt>
<trkpt lat="40.63035333333333" lon="-3.159826666666667">
<ele>741</ele>
<time>2017-03-01T10:25:15Z</time>
</trkpt>
<trkpt lat="40.63035333333333" lon="-3.1598450000000002">
<ele>742</ele>
<time>2017-03-01T10:25:17Z</time>
</trkpt>
<trkpt lat="40.630493333333334" lon="-3.159555">
<ele>726</ele>
<time>2017-03-01T10:28:07Z</time>
</trkpt>
<trkpt lat="40.630334999999995" lon="-3.1598800000000002">
<ele>744</ele>
<time>2017-03-01T10:25:21Z</time>
</trkpt>
<trkpt lat="40.63039333333334" lon="-3.1594533333333334">
<ele>720</ele>
<time>2017-03-01T10:28:11Z</time>
</trkpt>
<trkpt lat="40.63033166666666" lon="-3.159405">
<ele>717</ele>
<time>2017-03-01T10:28:13Z</time>
</trkpt>
<trkpt lat="40.63027666666667" lon="-3.1593716666666665">
<ele>713</ele>
<time>2017-03-01T10:28:15Z</time>
</trkpt>
<trkpt lat="40.63023833333333" lon="-3.159346666666666">
<ele>710</ele>
<time>2017-03-01T10:28:17Z</time>
</trkpt>
<trkpt lat="40.63023833333333" lon="-3.1593266666666664">
<ele>710</ele>
<time>2017-03-01T10:28:19Z</time>
</trkpt>
<trkpt lat="40.63026166666667" lon="-3.1593066666666667">
<ele>711</ele>
<time>2017-03-01T10:28:21Z</time>
</trkpt>
<trkpt lat="40.63026166666667" lon="-3.159308333333333">
<ele>711</ele>
<time>2017-03-01T10:28:23Z</time>
</trkpt>
<trkpt lat="40.63041166666667" lon="-3.159405">
<ele>734</ele>
<time>2017-03-01T10:26:29Z</time>
</trkpt>
<trkpt lat="40.630275" lon="-3.1593216666666666">
<ele>710</ele>
<time>2017-03-01T10:28:25Z</time>
</trkpt>
<trkpt lat="40.63042166666666" lon="-3.1594233333333337">
<ele>726</ele>
<time>2017-03-01T10:26:31Z</time>
</trkpt>
<trkpt lat="40.630295000000004" lon="-3.1593433333333336">
<ele>710</ele>
<time>2017-03-01T10:28:27Z</time>
</trkpt>
<trkpt lat="40.63030833333333" lon="-3.159358333333334">
<ele>709</ele>
<time>2017-03-01T10:28:29Z</time>
</trkpt>
<trkpt lat="40.630518333333335" lon="-3.159505">
<ele>711</ele>
<time>2017-03-01T10:26:35Z</time>
</trkpt>
<trkpt lat="40.630498333333335" lon="-3.1594433333333334">
<ele>713</ele>
<time>2017-03-01T10:26:37Z</time>
</trkpt>
<trkpt lat="40.63050166666667" lon="-3.15942">
<ele>717</ele>
<time>2017-03-01T10:26:39Z</time>
</trkpt>
<trkpt lat="40.63048666666667" lon="-3.159391666666666">
<ele>720</ele>
<time>2017-03-01T10:26:41Z</time>
</trkpt>
<trkpt lat="40.63046666666666" lon="-3.1593666666666667">
<ele>724</ele>
<time>2017-03-01T10:26:43Z</time>
</trkpt>
<trkpt lat="40.63045666666667" lon="-3.1593416666666667">
<ele>725</ele>
<time>2017-03-01T10:26:45Z</time>
</trkpt>
<trkpt lat="40.63046333333333" lon="-3.1593400000000003">
<ele>727</ele>
<time>2017-03-01T10:26:47Z</time>
</trkpt>
<trkpt lat="40.630509999999994" lon="-3.1595783333333336">
<ele>702</ele>
<time>2017-03-01T10:28:41Z</time>
</trkpt>
<trkpt lat="40.63057" lon="-3.159386666666667">
<ele>733</ele>
<time>2017-03-01T10:30:01Z</time>
</trkpt>
<trkpt lat="40.63046666666666" lon="-3.159338333333333">
<ele>730</ele>
<time>2017-03-01T10:26:51Z</time>
</trkpt>
<trkpt lat="40.63048166666667" lon="-3.1593433333333336">
<ele>730</ele>
<time>2017-03-01T10:26:53Z</time>
</trkpt>
<trkpt lat="40.63050666666666" lon="-3.1593633333333333">
<ele>732</ele>
<time>2017-03-01T10:26:55Z</time>
</trkpt>
<trkpt lat="40.63058" lon="-3.159418333333333">
<ele>729</ele>
<time>2017-03-01T10:30:03Z</time>
</trkpt>
<trkpt lat="40.63051666666667" lon="-3.1593533333333332">
<ele>732</ele>
<time>2017-03-01T10:26:57Z</time>
</trkpt>
<trkpt lat="40.630554999999994" lon="-3.15936">
<ele>733</ele>
<time>2017-03-01T10:26:59Z</time>
</trkpt>
<trkpt lat="40.63060666666667" lon="-3.159396666666667">
<ele>733</ele>
<time>2017-03-01T10:27:01Z</time>
</trkpt>
<trkpt lat="40.630633333333336" lon="-3.159418333333333">
<ele>733</ele>
<time>2017-03-01T10:27:03Z</time>
</trkpt>
<trkpt lat="40.630676666666666" lon="-3.1594433333333334">
<ele>733</ele>
<time>2017-03-01T10:27:05Z</time>
</trkpt>
<trkpt lat="40.630698333333335" lon="-3.1594466666666667">
<ele>736</ele>
<time>2017-03-01T10:27:07Z</time>
</trkpt>
<trkpt lat="40.63071166666667" lon="-3.1594666666666664">
<ele>737</ele>
<time>2017-03-01T10:27:09Z</time>
</trkpt>
<trkpt lat="40.63073833333333" lon="-3.1594899999999995">
<ele>736</ele>
<time>2017-03-01T10:27:11Z</time>
</trkpt>
<trkpt lat="40.630715" lon="-3.159478333333333">
<ele>738</ele>
<time>2017-03-01T10:27:13Z</time>
</trkpt>
<trkpt lat="40.630705" lon="-3.1594800000000003">
<ele>739</ele>
<time>2017-03-01T10:27:15Z</time>
</trkpt>
<trkpt lat="40.63061833333334" lon="-3.1594466666666667">
<ele>743</ele>
<time>2017-03-01T10:30:27Z</time>
</trkpt>
<trkpt lat="40.63071" lon="-3.1595">
<ele>740</ele>
<time>2017-03-01T10:27:19Z</time>
</trkpt>
<trkpt lat="40.630595" lon="-3.15945">
<ele>739</ele>
<time>2017-03-01T10:30:31Z</time>
</trkpt>
<trkpt lat="40.63071166666667" lon="-3.159505">
<ele>741</ele>
<time>2017-03-01T10:27:23Z</time>
</trkpt>
<trkpt lat="40.63075" lon="-3.159545">
<ele>743</ele>
<time>2017-03-01T10:27:25Z</time>
</trkpt>
<trkpt lat="40.630743333333335" lon="-3.1595566666666666">
<ele>744</ele>
<time>2017-03-01T10:27:27Z</time>
</trkpt>
<trkpt lat="40.630595" lon="-3.159465">
<ele>736</ele>
<time>2017-03-01T10:30:35Z</time>
</trkpt>
<trkpt lat="40.630595" lon="-3.159465">
<ele>736</ele>
<time>2017-03-01T10:30:37Z</time>
</trkpt>
<trkpt lat="40.630595" lon="-3.159465">
<ele>736</ele>
<time>2017-03-01T10:30:39Z</time>
</trkpt>
<trkpt lat="40.63062" lon="-3.159486666666667">
<ele>732</ele>
<time>2017-03-01T10:30:41Z</time>
</trkpt>
<trkpt lat="40.630743333333335" lon="-3.15956">
<ele>744</ele>
<time>2017-03-01T10:27:33Z</time>
</trkpt>
<trkpt lat="40.630806666666665" lon="-3.159605">
<ele>745</ele>
<time>2017-03-01T10:27:35Z</time>
</trkpt>
<trkpt lat="40.630829999999996" lon="-3.1596233333333337">
<ele>744</ele>
<time>2017-03-01T10:27:37Z</time>
</trkpt>
<trkpt lat="40.630631666666666" lon="-3.1594800000000003">
<ele>728</ele>
<time>2017-03-01T10:30:47Z</time>
</trkpt>
<trkpt lat="40.63088166666667" lon="-3.159655">
<ele>745</ele>
<time>2017-03-01T10:27:41Z</time>
</trkpt>
<trkpt lat="40.63088833333334" lon="-3.1596583333333332">
<ele>745</ele>
<time>2017-03-01T10:27:43Z</time>
</trkpt>
<trkpt lat="40.630885" lon="-3.1596516666666665">
<ele>745</ele>
<time>2017-03-01T10:27:45Z</time>
</trkpt>
<trkpt lat="40.63064" lon="-3.159495">
<ele>729</ele>
<time>2017-03-01T10:30:55Z</time>
</trkpt>
<trkpt lat="40.63064" lon="-3.159495">
<ele>729</ele>
<time>2017-03-01T10:30:57Z</time>
</trkpt>
<trkpt lat="40.63069666666667" lon="-3.1595299999999997">
<ele>730</ele>
<time>2017-03-01T10:30:59Z</time>
</trkpt>
<trkpt lat="40.630718333333334" lon="-3.159545">
<ele>731</ele>
<time>2017-03-01T10:31:01Z</time>
</trkpt>
<trkpt lat="40.630734999999994" lon="-3.159566666666667">
<ele>731</ele>
<time>2017-03-01T10:31:03Z</time>
</trkpt>
<trkpt lat="40.63075166666667" lon="-3.1595883333333337">
<ele>732</ele>
<time>2017-03-01T10:31:05Z</time>
</trkpt>
<trkpt lat="40.63080166666667" lon="-3.159505">
<ele>732</ele>
<time>2017-03-01T10:31:07Z</time>
</trkpt>
<trkpt lat="40.63090166666667" lon="-3.159403333333334">
<ele>733</ele>
<time>2017-03-01T10:31:09Z</time>
</trkpt>
<trkpt lat="40.63094" lon="-3.1596566666666672">
<ele>737</ele>
<time>2017-03-01T10:31:23Z</time>
</trkpt>
<trkpt lat="40.63066333333334" lon="-3.159431666666667">
<ele>727</ele>
<time>2017-03-01T10:31:25Z</time>
</trkpt>
<trkpt lat="40.63023833333333" lon="-3.159346666666666">
<ele>710</ele>
<time>2017-03-01T10:28:17Z</time>
</trkpt>
<trkpt lat="40.63023833333333" lon="-3.1593266666666664">
<ele>710</ele>
<time>2017-03-01T10:28:19Z</time>
</trkpt>
<trkpt lat="40.63026166666667" lon="-3.1593066666666667">
<ele>711</ele>
<time>2017-03-01T10:28:21Z</time>
</trkpt>
<trkpt lat="40.630595" lon="-3.159383333333333">
<ele>719</ele>
<time>2017-03-01T10:31:33Z</time>
</trkpt>
<trkpt lat="40.630586666666666" lon="-3.1594150000000005">
<ele>717</ele>
<time>2017-03-01T10:31:35Z</time>
</trkpt>
<trkpt lat="40.63057666666667" lon="-3.1594216666666664">
<ele>718</ele>
<time>2017-03-01T10:31:37Z</time>
</trkpt>
<trkpt lat="40.63057666666667" lon="-3.1594066666666665">
<ele>716</ele>
<time>2017-03-01T10:31:39Z</time>
</trkpt>
<trkpt lat="40.63026166666667" lon="-3.159308333333333">
<ele>711</ele>
<time>2017-03-01T10:28:23Z</time>
</trkpt>
<trkpt lat="40.630275" lon="-3.1593216666666666">
<ele>710</ele>
<time>2017-03-01T10:28:25Z</time>
</trkpt>
<trkpt lat="40.630295000000004" lon="-3.1593433333333336">
<ele>710</ele>
<time>2017-03-01T10:28:27Z</time>
</trkpt>
<trkpt lat="40.630575" lon="-3.1594116666666667">
<ele>712</ele>
<time>2017-03-01T10:31:47Z</time>
</trkpt>
<trkpt lat="40.63033333333333" lon="-3.159375">
<ele>707</ele>
<time>2017-03-01T10:28:31Z</time>
</trkpt>
<trkpt lat="40.630341666666666" lon="-3.159391666666666">
<ele>706</ele>
<time>2017-03-01T10:28:33Z</time>
</trkpt>
<trkpt lat="40.630390000000006" lon="-3.15945">
<ele>705</ele>
<time>2017-03-01T10:28:35Z</time>
</trkpt>
<trkpt lat="40.63042666666667" lon="-3.1594983333333335">
<ele>704</ele>
<time>2017-03-01T10:28:37Z</time>
</trkpt>
<trkpt lat="40.630658333333336" lon="-3.159405">
<ele>704</ele>
<time>2017-03-01T10:31:57Z</time>
</trkpt>
<trkpt lat="40.630673333333334" lon="-3.1594116666666667">
<ele>704</ele>
<time>2017-03-01T10:31:59Z</time>
</trkpt>
<trkpt lat="40.630691666666664" lon="-3.1594083333333334">
<ele>705</ele>
<time>2017-03-01T10:32:01Z</time>
</trkpt>
<trkpt lat="40.63063833333333" lon="-3.1594">
<ele>704</ele>
<time>2017-03-01T10:32:03Z</time>
</trkpt>
<trkpt lat="40.630604999999996" lon="-3.15939">
<ele>704</ele>
<time>2017-03-01T10:32:05Z</time>
</trkpt>
<trkpt lat="40.63066" lon="-3.159413333333333">
<ele>698</ele>
<time>2017-03-01T10:32:17Z</time>
</trkpt>
<trkpt lat="40.63066166666667" lon="-3.159418333333333">
<ele>696</ele>
<time>2017-03-01T10:32:19Z</time>
</trkpt>
<trkpt lat="40.630678333333336" lon="-3.159471666666667">
<ele>694</ele>
<time>2017-03-01T10:32:21Z</time>
</trkpt>
<trkpt lat="40.630678333333336" lon="-3.1594899999999995">
<ele>694</ele>
<time>2017-03-01T10:32:23Z</time>
</trkpt>
<trkpt lat="40.63058" lon="-3.159418333333333">
<ele>729</ele>
<time>2017-03-01T10:30:03Z</time>
</trkpt>
<trkpt lat="40.630583333333334" lon="-3.1594233333333337">
<ele>722</ele>
<time>2017-03-01T10:30:05Z</time>
</trkpt>
<trkpt lat="40.63054833333333" lon="-3.1593799999999996">
<ele>715</ele>
<time>2017-03-01T10:30:07Z</time>
</trkpt>
<trkpt lat="40.630635" lon="-3.1595066666666667">
<ele>696</ele>
<time>2017-03-01T10:32:29Z</time>
</trkpt>
<trkpt lat="40.630628333333334" lon="-3.159518333333333">
<ele>697</ele>
<time>2017-03-01T10:32:31Z</time>
</trkpt>
<trkpt lat="40.63062333333333" lon="-3.1595333333333335">
<ele>697</ele>
<time>2017-03-01T10:32:33Z</time>
</trkpt>
<trkpt lat="40.630635" lon="-3.159368333333333">
<ele>736</ele>
<time>2017-03-01T10:30:15Z</time>
</trkpt>
<trkpt lat="40.630625" lon="-3.1593616666666664">
<ele>738</ele>
<time>2017-03-01T10:30:17Z</time>
</trkpt>
<trkpt lat="40.630635" lon="-3.1595716666666664">
<ele>697</ele>
<time>2017-03-01T10:32:39Z</time>
</trkpt>
<trkpt lat="40.630646666666664" lon="-3.1593483333333334">
<ele>749</ele>
<time>2017-03-01T10:30:19Z</time>
</trkpt>
<trkpt lat="40.630625" lon="-3.1593783333333336">
<ele>748</ele>
<time>2017-03-01T10:30:21Z</time>
</trkpt>
<trkpt lat="40.63061666666667" lon="-3.15939">
<ele>749</ele>
<time>2017-03-01T10:30:23Z</time>
</trkpt>
<trkpt lat="40.63061666666667" lon="-3.159426666666667">
<ele>747</ele>
<time>2017-03-01T10:30:25Z</time>
</trkpt>
<trkpt lat="40.63061833333334" lon="-3.1594466666666667">
<ele>743</ele>
<time>2017-03-01T10:30:27Z</time>
</trkpt>
<trkpt lat="40.630675" lon="-3.1596883333333334">
<ele>697</ele>
<time>2017-03-01T10:32:47Z</time>
</trkpt>
<trkpt lat="40.630595" lon="-3.15945">
<ele>739</ele>
<time>2017-03-01T10:30:31Z</time>
</trkpt>
<trkpt lat="40.630665" lon="-3.159753333333333">
<ele>696</ele>
<time>2017-03-01T10:32:51Z</time>
</trkpt>
<trkpt lat="40.630595" lon="-3.159465">
<ele>736</ele>
<time>2017-03-01T10:30:35Z</time>
</trkpt>
<trkpt lat="40.630595" lon="-3.159465">
<ele>736</ele>
<time>2017-03-01T10:30:37Z</time>
</trkpt>
<trkpt lat="40.630595" lon="-3.159465">
<ele>736</ele>
<time>2017-03-01T10:30:39Z</time>
</trkpt>
<trkpt lat="40.630678333333336" lon="-3.1597933333333335">
<ele>696</ele>
<time>2017-03-01T10:32:59Z</time>
</trkpt>
<trkpt lat="40.63063833333333" lon="-3.1597766666666662">
<ele>696</ele>
<time>2017-03-01T10:33:01Z</time>
</trkpt>
<trkpt lat="40.63053" lon="-3.159721666666667">
<ele>696</ele>
<time>2017-03-01T10:33:03Z</time>
</trkpt>
<trkpt lat="40.63063" lon="-3.159486666666667">
<ele>729</ele>
<time>2017-03-01T10:30:49Z</time>
</trkpt>
<trkpt lat="40.630469999999995" lon="-3.159555">
<ele>690</ele>
<time>2017-03-01T10:33:05Z</time>
</trkpt>
<trkpt lat="40.63064" lon="-3.159495">
<ele>729</ele>
<time>2017-03-01T10:30:51Z</time>
</trkpt>
<trkpt lat="40.63064" lon="-3.159495">
<ele>729</ele>
<time>2017-03-01T10:30:53Z</time>
</trkpt>
<trkpt lat="40.63035" lon="-3.1593266666666664">
<ele>700</ele>
<time>2017-03-01T10:33:07Z</time>
</trkpt>
<trkpt lat="40.63064" lon="-3.159495">
<ele>729</ele>
<time>2017-03-01T10:30:57Z</time>
</trkpt>
<trkpt lat="40.63069666666667" lon="-3.1595299999999997">
<ele>730</ele>
<time>2017-03-01T10:30:59Z</time>
</trkpt>
<trkpt lat="40.630718333333334" lon="-3.159545">
<ele>731</ele>
<time>2017-03-01T10:31:01Z</time>
</trkpt>
<trkpt lat="40.630734999999994" lon="-3.159566666666667">
<ele>731</ele>
<time>2017-03-01T10:31:03Z</time>
</trkpt>
<trkpt lat="40.63075166666667" lon="-3.1595883333333337">
<ele>732</ele>
<time>2017-03-01T10:31:05Z</time>
</trkpt>
<trkpt lat="40.63080166666667" lon="-3.159505">
<ele>732</ele>
<time>2017-03-01T10:31:07Z</time>
</trkpt>
<trkpt lat="40.63090166666667" lon="-3.159403333333334">
<ele>733</ele>
<time>2017-03-01T10:31:09Z</time>
</trkpt>
<trkpt lat="40.63094" lon="-3.1596566666666672">
<ele>737</ele>
<time>2017-03-01T10:31:23Z</time>
</trkpt>
<trkpt lat="40.63066333333334" lon="-3.159431666666667">
<ele>727</ele>
<time>2017-03-01T10:31:25Z</time>
</trkpt>
<trkpt lat="40.630615" lon="-3.159413333333333">
<ele>724</ele>
<time>2017-03-01T10:31:27Z</time>
</trkpt>
<trkpt lat="40.630604999999996" lon="-3.1593850000000003">
<ele>723</ele>
<time>2017-03-01T10:31:29Z</time>
</trkpt>
<trkpt lat="40.630633333333336" lon="-3.1595633333333333">
<ele>700</ele>
<time>2017-03-01T10:35:31Z</time>
</trkpt>
<trkpt lat="40.630625" lon="-3.159531666666667">
<ele>698</ele>
<time>2017-03-01T10:35:33Z</time>
</trkpt>
<trkpt lat="40.63061833333334" lon="-3.159515">
<ele>697</ele>
<time>2017-03-01T10:35:35Z</time>
</trkpt>
<trkpt lat="40.630626666666664" lon="-3.159508333333333">
<ele>693</ele>
<time>2017-03-01T10:35:37Z</time>
</trkpt>
<trkpt lat="40.630586666666666" lon="-3.1594150000000005">
<ele>717</ele>
<time>2017-03-01T10:31:35Z</time>
</trkpt>
<trkpt lat="40.63057666666667" lon="-3.1594216666666664">
<ele>718</ele>
<time>2017-03-01T10:31:37Z</time>
</trkpt>
<trkpt lat="40.63063666666667" lon="-3.1595250000000004">
<ele>690</ele>
<time>2017-03-01T10:35:41Z</time>
</trkpt>
<trkpt lat="40.63063666666667" lon="-3.159538333333333">
<ele>689</ele>
<time>2017-03-01T10:35:43Z</time>
</trkpt>
<trkpt lat="40.63063666666667" lon="-3.15955">
<ele>689</ele>
<time>2017-03-01T10:35:45Z</time>
</trkpt>
<trkpt lat="40.630575" lon="-3.1594116666666667">
<ele>712</ele>
<time>2017-03-01T10:31:45Z</time>
</trkpt>
<trkpt lat="40.630575" lon="-3.1594116666666667">
<ele>712</ele>
<time>2017-03-01T10:31:47Z</time>
</trkpt>
<trkpt lat="40.63088666666667" lon="-3.1592983333333335">
<ele>691</ele>
<time>2017-03-01T10:37:13Z</time>
</trkpt>
<trkpt lat="40.63084" lon="-3.1593349999999996">
<ele>698</ele>
<time>2017-03-01T10:37:15Z</time>
</trkpt>
<trkpt lat="40.63081833333333" lon="-3.159351666666667">
<ele>702</ele>
<time>2017-03-01T10:37:17Z</time>
</trkpt>
<trkpt lat="40.63079166666667" lon="-3.1593883333333337">
<ele>704</ele>
<time>2017-03-01T10:37:19Z</time>
</trkpt>
<trkpt lat="40.63078666666667" lon="-3.1593983333333333">
<ele>703</ele>
<time>2017-03-01T10:37:21Z</time>
</trkpt>
<trkpt lat="40.630790000000005" lon="-3.159403333333334">
<ele>703</ele>
<time>2017-03-01T10:37:23Z</time>
</trkpt>
<trkpt lat="40.63080333333333" lon="-3.1594016666666667">
<ele>703</ele>
<time>2017-03-01T10:37:25Z</time>
</trkpt>
<trkpt lat="40.63080333333333" lon="-3.1594016666666667">
<ele>703</ele>
<time>2017-03-01T10:37:27Z</time>
</trkpt>
<trkpt lat="40.63080333333333" lon="-3.1594016666666667">
<ele>703</ele>
<time>2017-03-01T10:37:29Z</time>
</trkpt>
<trkpt lat="40.63064" lon="-3.159413333333333">
<ele>705</ele>
<time>2017-03-01T10:31:55Z</time>
</trkpt>
<trkpt lat="40.630658333333336" lon="-3.159405">
<ele>704</ele>
<time>2017-03-01T10:31:57Z</time>
</trkpt>
<trkpt lat="40.630673333333334" lon="-3.1594116666666667">
<ele>704</ele>
<time>2017-03-01T10:31:59Z</time>
</trkpt>
<trkpt lat="40.630691666666664" lon="-3.1594083333333334">
<ele>705</ele>
<time>2017-03-01T10:32:01Z</time>
</trkpt>
<trkpt lat="40.63063833333333" lon="-3.1594">
<ele>704</ele>
<time>2017-03-01T10:32:03Z</time>
</trkpt>
<trkpt lat="40.630604999999996" lon="-3.15939">
<ele>704</ele>
<time>2017-03-01T10:32:05Z</time>
</trkpt>
<trkpt lat="40.63066" lon="-3.159413333333333">
<ele>698</ele>
<time>2017-03-01T10:32:17Z</time>
</trkpt>
<trkpt lat="40.630919999999996" lon="-3.159463333333333">
<ele>711</ele>
<time>2017-03-01T10:37:41Z</time>
</trkpt>
<trkpt lat="40.630919999999996" lon="-3.159463333333333">
<ele>711</ele>
<time>2017-03-01T10:37:43Z</time>
</trkpt>
<trkpt lat="40.630919999999996" lon="-3.159463333333333">
<ele>711</ele>
<time>2017-03-01T10:37:45Z</time>
</trkpt>
<trkpt lat="40.630919999999996" lon="-3.159463333333333">
<ele>711</ele>
<time>2017-03-01T10:37:47Z</time>
</trkpt>
<trkpt lat="40.63098333333333" lon="-3.1594833333333336">
<ele>711</ele>
<time>2017-03-01T10:37:49Z</time>
</trkpt>
<trkpt lat="40.630628333333334" lon="-3.159518333333333">
<ele>697</ele>
<time>2017-03-01T10:32:31Z</time>
</trkpt>
<trkpt lat="40.63062333333333" lon="-3.1595333333333335">
<ele>697</ele>
<time>2017-03-01T10:32:33Z</time>
</trkpt>
<trkpt lat="40.630625" lon="-3.1595483333333334">
<ele>697</ele>
<time>2017-03-01T10:32:35Z</time>
</trkpt>
<trkpt lat="40.630635" lon="-3.1595716666666664">
<ele>697</ele>
<time>2017-03-01T10:32:37Z</time>
</trkpt>
<trkpt lat="40.630635" lon="-3.1595716666666664">
<ele>697</ele>
<time>2017-03-01T10:32:39Z</time>
</trkpt>
<trkpt lat="40.630649999999996" lon="-3.159611666666667">
<ele>697</ele>
<time>2017-03-01T10:32:41Z</time>
</trkpt>
<trkpt lat="40.630955" lon="-3.1594383333333336">
<ele>706</ele>
<time>2017-03-01T10:38:01Z</time>
</trkpt>
<trkpt lat="40.63089333333333" lon="-3.1593400000000003">
<ele>703</ele>
<time>2017-03-01T10:38:03Z</time>
</trkpt>
<trkpt lat="40.630856666666666" lon="-3.159286666666667">
<ele>706</ele>
<time>2017-03-01T10:38:05Z</time>
</trkpt>
<trkpt lat="40.63089166666667" lon="-3.159336666666667">
<ele>705</ele>
<time>2017-03-01T10:38:07Z</time>
</trkpt>
<trkpt lat="40.63088333333334" lon="-3.1593850000000003">
<ele>704</ele>
<time>2017-03-01T10:38:09Z</time>
</trkpt>
<trkpt lat="40.63066666666667" lon="-3.1597783333333336">
<ele>696</ele>
<time>2017-03-01T10:32:53Z</time>
</trkpt>
<trkpt lat="40.63093333333334" lon="-3.1592483333333328">
<ele>704</ele>
<time>2017-03-01T10:38:13Z</time>
</trkpt>
<trkpt lat="40.630671666666665" lon="-3.1597933333333335">
<ele>696</ele>
<time>2017-03-01T10:32:55Z</time>
</trkpt>
<trkpt lat="40.630676666666666" lon="-3.1598016666666666">
<ele>696</ele>
<time>2017-03-01T10:32:57Z</time>
</trkpt>
<trkpt lat="40.630678333333336" lon="-3.1597933333333335">
<ele>696</ele>
<time>2017-03-01T10:32:59Z</time>
</trkpt>
<trkpt lat="40.63063833333333" lon="-3.1597766666666662">
<ele>696</ele>
<time>2017-03-01T10:33:01Z</time>
</trkpt>
<trkpt lat="40.630955" lon="-3.159521666666667">
<ele>703</ele>
<time>2017-03-01T10:38:27Z</time>
</trkpt>
<trkpt lat="40.63097666666667" lon="-3.1595333333333335">
<ele>703</ele>
<time>2017-03-01T10:38:29Z</time>
</trkpt>
<trkpt lat="40.63035" lon="-3.1593266666666664">
<ele>700</ele>
<time>2017-03-01T10:33:07Z</time>
</trkpt>
<trkpt lat="40.63097833333334" lon="-3.1595883333333337">
<ele>702</ele>
<time>2017-03-01T10:38:33Z</time>
</trkpt>
<trkpt lat="40.631013333333335" lon="-3.159626666666667">
<ele>704</ele>
<time>2017-03-01T10:38:35Z</time>
</trkpt>
<trkpt lat="40.631013333333335" lon="-3.159626666666667">
<ele>704</ele>
<time>2017-03-01T10:38:37Z</time>
</trkpt>
<trkpt lat="40.63023166666667" lon="-3.159345">
<ele>701</ele>
<time>2017-03-01T10:33:09Z</time>
</trkpt>
<trkpt lat="40.63009666666667" lon="-3.1591949999999995">
<ele>686</ele>
<time>2017-03-01T10:33:11Z</time>
</trkpt>
<trkpt lat="40.62993666666667" lon="-3.1590433333333334">
<ele>670</ele>
<time>2017-03-01T10:33:13Z</time>
</trkpt>
<trkpt lat="40.630539999999996" lon="-3.1602000000000006">
<ele>736</ele>
<time>2017-03-01T10:35:21Z</time>
</trkpt>
<trkpt lat="40.630539999999996" lon="-3.160136666666667">
<ele>732</ele>
<time>2017-03-01T10:35:23Z</time>
</trkpt>
<trkpt lat="40.63059" lon="-3.159745">
<ele>710</ele>
<time>2017-03-01T10:35:25Z</time>
</trkpt>
<trkpt lat="40.63061833333334" lon="-3.15965">
<ele>704</ele>
<time>2017-03-01T10:35:27Z</time>
</trkpt>
<trkpt lat="40.63111666666667" lon="-3.1598216666666663">
<ele>710</ele>
<time>2017-03-01T10:38:53Z</time>
</trkpt>
<trkpt lat="40.631123333333335" lon="-3.1598616666666666">
<ele>710</ele>
<time>2017-03-01T10:38:55Z</time>
</trkpt>
<trkpt lat="40.63111333333333" lon="-3.1598749999999995">
<ele>711</ele>
<time>2017-03-01T10:38:57Z</time>
</trkpt>
<trkpt lat="40.631115" lon="-3.1598983333333335">
<ele>711</ele>
<time>2017-03-01T10:38:59Z</time>
</trkpt>
<trkpt lat="40.63112" lon="-3.159908333333333">
<ele>711</ele>
<time>2017-03-01T10:39:01Z</time>
</trkpt>
<trkpt lat="40.630625" lon="-3.159531666666667">
<ele>698</ele>
<time>2017-03-01T10:35:33Z</time>
</trkpt>
<trkpt lat="40.63061833333334" lon="-3.159515">
<ele>697</ele>
<time>2017-03-01T10:35:35Z</time>
</trkpt>
<trkpt lat="40.630626666666664" lon="-3.159508333333333">
<ele>693</ele>
<time>2017-03-01T10:35:37Z</time>
</trkpt>
<trkpt lat="40.630635" lon="-3.159508333333333">
<ele>691</ele>
<time>2017-03-01T10:35:39Z</time>
</trkpt>
<trkpt lat="40.63063666666667" lon="-3.1595250000000004">
<ele>690</ele>
<time>2017-03-01T10:35:41Z</time>
</trkpt>
<trkpt lat="40.631145" lon="-3.1599349999999995">
<ele>712</ele>
<time>2017-03-01T10:39:09Z</time>
</trkpt>
<trkpt lat="40.63115333333334" lon="-3.1599416666666666">
<ele>712</ele>
<time>2017-03-01T10:39:11Z</time>
</trkpt>
<trkpt lat="40.631165" lon="-3.1599550000000005">
<ele>713</ele>
<time>2017-03-01T10:39:13Z</time>
</trkpt>
<trkpt lat="40.63115166666667" lon="-3.160056666666667">
<ele>715</ele>
<time>2017-03-01T10:39:23Z</time>
</trkpt>
<trkpt lat="40.63088666666667" lon="-3.1592983333333335">
<ele>691</ele>
<time>2017-03-01T10:37:13Z</time>
</trkpt>
<trkpt lat="40.631121666666665" lon="-3.1600433333333333">
<ele>716</ele>
<time>2017-03-01T10:39:27Z</time>
</trkpt>
<trkpt lat="40.63081833333333" lon="-3.159351666666667">
<ele>702</ele>
<time>2017-03-01T10:37:17Z</time>
</trkpt>
<trkpt lat="40.631076666666665" lon="-3.159966666666667">
<ele>718</ele>
<time>2017-03-01T10:39:31Z</time>
</trkpt>
<trkpt lat="40.63078666666667" lon="-3.1593983333333333">
<ele>703</ele>
<time>2017-03-01T10:37:21Z</time>
</trkpt>
<trkpt lat="40.630790000000005" lon="-3.159403333333334">
<ele>703</ele>
<time>2017-03-01T10:37:23Z</time>
</trkpt>
<trkpt lat="40.63080333333333" lon="-3.1594016666666667">
<ele>703</ele>
<time>2017-03-01T10:37:25Z</time>
</trkpt>
<trkpt lat="40.63080333333333" lon="-3.1594016666666667">
<ele>703</ele>
<time>2017-03-01T10:37:27Z</time>
</trkpt>
<trkpt lat="40.63111333333333" lon="-3.1599983333333332">
<ele>716</ele>
<time>2017-03-01T10:39:35Z</time>
</trkpt>
<trkpt lat="40.63109" lon="-3.159945">
<ele>717</ele>
<time>2017-03-01T10:39:37Z</time>
</trkpt>
<trkpt lat="40.63111666666667" lon="-3.1599633333333332">
<ele>716</ele>
<time>2017-03-01T10:39:39Z</time>
</trkpt>
<trkpt lat="40.630885" lon="-3.1594300000000004">
<ele>711</ele>
<time>2017-03-01T10:37:35Z</time>
</trkpt>
<trkpt lat="40.63113" lon="-3.1599700000000004">
<ele>715</ele>
<time>2017-03-01T10:39:43Z</time>
</trkpt>
<trkpt lat="40.63109166666666" lon="-3.1600383333333335">
<ele>715</ele>
<time>2017-03-01T10:39:45Z</time>
</trkpt>
<trkpt lat="40.630919999999996" lon="-3.159463333333333">
<ele>711</ele>
<time>2017-03-01T10:37:41Z</time>
</trkpt>
<trkpt lat="40.63112833333333" lon="-3.1602733333333335">
<ele>714</ele>
<time>2017-03-01T10:39:49Z</time>
</trkpt>
<trkpt lat="40.631184999999995" lon="-3.160353333333333">
<ele>714</ele>
<time>2017-03-01T10:39:51Z</time>
</trkpt>
<trkpt lat="40.63119833333334" lon="-3.1603649999999996">
<ele>714</ele>
<time>2017-03-01T10:39:53Z</time>
</trkpt>
<trkpt lat="40.63122" lon="-3.1602099999999997">
<ele>713</ele>
<time>2017-03-01T10:39:55Z</time>
</trkpt>
<trkpt lat="40.6312" lon="-3.160071666666667">
<ele>713</ele>
<time>2017-03-01T10:39:57Z</time>
</trkpt>
<trkpt lat="40.63117666666667" lon="-3.160011666666667">
<ele>713</ele>
<time>2017-03-01T10:39:59Z</time>
</trkpt>
<trkpt lat="40.631150000000005" lon="-3.1600233333333336">
<ele>712</ele>
<time>2017-03-01T10:40:01Z</time>
</trkpt>
<trkpt lat="40.631051666666664" lon="-3.1594966666666666">
<ele>765</ele>
<time>2017-03-01T10:41:25Z</time>
</trkpt>
<trkpt lat="40.63097333333334" lon="-3.1594883333333335">
<ele>709</ele>
<time>2017-03-01T10:37:59Z</time>
</trkpt>
<trkpt lat="40.630955" lon="-3.1594383333333336">
<ele>706</ele>
<time>2017-03-01T10:38:01Z</time>
</trkpt>
<trkpt lat="40.63089333333333" lon="-3.1593400000000003">
<ele>703</ele>
<time>2017-03-01T10:38:03Z</time>
</trkpt>
<trkpt lat="40.630856666666666" lon="-3.159286666666667">
<ele>706</ele>
<time>2017-03-01T10:38:05Z</time>
</trkpt>
<trkpt lat="40.63089166666667" lon="-3.159336666666667">
<ele>705</ele>
<time>2017-03-01T10:38:07Z</time>
</trkpt>
<trkpt lat="40.63088333333334" lon="-3.1593850000000003">
<ele>704</ele>
<time>2017-03-01T10:38:09Z</time>
</trkpt>
<trkpt lat="40.63088833333334" lon="-3.159346666666666">
<ele>703</ele>
<time>2017-03-01T10:38:11Z</time>
</trkpt>
<trkpt lat="40.63093333333334" lon="-3.1592483333333328">
<ele>704</ele>
<time>2017-03-01T10:38:13Z</time>
</trkpt>
<trkpt lat="40.63106666666667" lon="-3.1592583333333333">
<ele>705</ele>
<time>2017-03-01T10:38:15Z</time>
</trkpt>
<trkpt lat="40.63124333333334" lon="-3.1593066666666667">
<ele>706</ele>
<time>2017-03-01T10:38:17Z</time>
</trkpt>
<trkpt lat="40.63135666666667" lon="-3.1593499999999994">
<ele>709</ele>
<time>2017-03-01T10:38:19Z</time>
</trkpt>
<trkpt lat="40.63107166666667" lon="-3.159093333333333">
<ele>794</ele>
<time>2017-03-01T10:42:49Z</time>
</trkpt>
<trkpt lat="40.63113166666667" lon="-3.1590849999999997">
<ele>794</ele>
<time>2017-03-01T10:42:51Z</time>
</trkpt>
<trkpt lat="40.63118" lon="-3.159086666666667">
<ele>794</ele>
<time>2017-03-01T10:42:53Z</time>
</trkpt>
<trkpt lat="40.63122166666667" lon="-3.1590816666666663">
<ele>795</ele>
<time>2017-03-01T10:42:55Z</time>
</trkpt>
<trkpt lat="40.63126833333333" lon="-3.1590983333333336">
<ele>794</ele>
<time>2017-03-01T10:42:57Z</time>
</trkpt>
<trkpt lat="40.63097666666667" lon="-3.1595333333333335">
<ele>703</ele>
<time>2017-03-01T10:38:29Z</time>
</trkpt>
<trkpt lat="40.631235" lon="-3.1591">
<ele>793</ele>
<time>2017-03-01T10:42:59Z</time>
</trkpt>
<trkpt lat="40.63122833333333" lon="-3.159101666666667">
<ele>793</ele>
<time>2017-03-01T10:43:01Z</time>
</trkpt>
<trkpt lat="40.63126666666667" lon="-3.159136666666667">
<ele>795</ele>
<time>2017-03-01T10:43:03Z</time>
</trkpt>
<trkpt lat="40.631013333333335" lon="-3.159626666666667">
<ele>704</ele>
<time>2017-03-01T10:38:37Z</time>
</trkpt>
<trkpt lat="40.631238333333336" lon="-3.1591566666666666">
<ele>796</ele>
<time>2017-03-01T10:43:09Z</time>
</trkpt>
<trkpt lat="40.631193333333336" lon="-3.1591433333333336">
<ele>796</ele>
<time>2017-03-01T10:43:11Z</time>
</trkpt>
<trkpt lat="40.631013333333335" lon="-3.159626666666667">
<ele>704</ele>
<time>2017-03-01T10:38:39Z</time>
</trkpt>
<trkpt lat="40.631186666666665" lon="-3.159183333333333">
<ele>793</ele>
<time>2017-03-01T10:43:15Z</time>
</trkpt>
<trkpt lat="40.63111" lon="-3.1597349999999995">
<ele>708</ele>
<time>2017-03-01T10:38:43Z</time>
</trkpt>
<trkpt lat="40.63111166666667" lon="-3.159745">
<ele>708</ele>
<time>2017-03-01T10:38:45Z</time>
</trkpt>
<trkpt lat="40.63111166666667" lon="-3.159745">
<ele>708</ele>
<time>2017-03-01T10:38:47Z</time>
</trkpt>
<trkpt lat="40.63111166666667" lon="-3.159745">
<ele>708</ele>
<time>2017-03-01T10:38:49Z</time>
</trkpt>
<trkpt lat="40.63111166666667" lon="-3.159745">
<ele>708</ele>
<time>2017-03-01T10:38:51Z</time>
</trkpt>
<trkpt lat="40.63111666666667" lon="-3.1598216666666663">
<ele>710</ele>
<time>2017-03-01T10:38:53Z</time>
</trkpt>
<trkpt lat="40.631123333333335" lon="-3.1598616666666666">
<ele>710</ele>
<time>2017-03-01T10:38:55Z</time>
</trkpt>
<trkpt lat="40.63146666666667" lon="-3.159191666666666">
<ele>806</ele>
<time>2017-03-01T10:43:35Z</time>
</trkpt>
<trkpt lat="40.631115" lon="-3.1598983333333335">
<ele>711</ele>
<time>2017-03-01T10:38:59Z</time>
</trkpt>
<trkpt lat="40.63112" lon="-3.159908333333333">
<ele>711</ele>
<time>2017-03-01T10:39:01Z</time>
</trkpt>
<trkpt lat="40.631121666666665" lon="-3.159923333333333">
<ele>711</ele>
<time>2017-03-01T10:39:03Z</time>
</trkpt>
<trkpt lat="40.631125" lon="-3.15994">
<ele>711</ele>
<time>2017-03-01T10:39:05Z</time>
</trkpt>
<trkpt lat="40.63120833333333" lon="-3.1590016666666667">
<ele>817</ele>
<time>2017-03-01T10:43:47Z</time>
</trkpt>
<trkpt lat="40.63117833333333" lon="-3.158955">
<ele>819</ele>
<time>2017-03-01T10:43:49Z</time>
</trkpt>
<trkpt lat="40.63119" lon="-3.1589416666666663">
<ele>820</ele>
<time>2017-03-01T10:43:51Z</time>
</trkpt>
<trkpt lat="40.631283333333336" lon="-3.1590899999999995">
<ele>821</ele>
<time>2017-03-01T10:43:53Z</time>
</trkpt>
<trkpt lat="40.63134" lon="-3.1591883333333337">
<ele>820</ele>
<time>2017-03-01T10:43:55Z</time>
</trkpt>
<trkpt lat="40.631385" lon="-3.159286666666667">
<ele>818</ele>
<time>2017-03-01T10:43:57Z</time>
</trkpt>
<trkpt lat="40.63139" lon="-3.159278333333333">
<ele>819</ele>
<time>2017-03-01T10:43:59Z</time>
</trkpt>
<trkpt lat="40.631388333333334" lon="-3.1593266666666664">
<ele>821</ele>
<time>2017-03-01T10:44:01Z</time>
</trkpt>
<trkpt lat="40.63115333333334" lon="-3.1599416666666666">
<ele>712</ele>
<time>2017-03-01T10:39:11Z</time>
</trkpt>
<trkpt lat="40.63139" lon="-3.1593333333333335">
<ele>826</ele>
<time>2017-03-01T10:44:07Z</time>
</trkpt>
<trkpt lat="40.63137166666667" lon="-3.1592899999999995">
<ele>827</ele>
<time>2017-03-01T10:44:09Z</time>
</trkpt>
<trkpt lat="40.63155666666667" lon="-3.159783333333333">
<ele>738</ele>
<time>2017-03-01T10:45:23Z</time>
</trkpt>
<trkpt lat="40.631523333333334" lon="-3.1598200000000003">
<ele>730</ele>
<time>2017-03-01T10:45:25Z</time>
</trkpt>
<trkpt lat="40.631515" lon="-3.159828333333333">
<ele>729</ele>
<time>2017-03-01T10:45:27Z</time>
</trkpt>
<trkpt lat="40.631506666666674" lon="-3.1598300000000004">
<ele>727</ele>
<time>2017-03-01T10:45:29Z</time>
</trkpt>
<trkpt lat="40.63111333333333" lon="-3.1599983333333332">
<ele>716</ele>
<time>2017-03-01T10:39:35Z</time>
</trkpt>
<trkpt lat="40.631510000000006" lon="-3.159826666666667">
<ele>727</ele>
<time>2017-03-01T10:45:35Z</time>
</trkpt>
<trkpt lat="40.63147666666667" lon="-3.1598016666666666">
<ele>728</ele>
<time>2017-03-01T10:45:37Z</time>
</trkpt>
<trkpt lat="40.63145833333333" lon="-3.1597700000000004">
<ele>730</ele>
<time>2017-03-01T10:45:39Z</time>
</trkpt>
<trkpt lat="40.63144666666667" lon="-3.1597649999999997">
<ele>729</ele>
<time>2017-03-01T10:45:41Z</time>
</trkpt>
<trkpt lat="40.631433333333334" lon="-3.1597349999999995">
<ele>730</ele>
<time>2017-03-01T10:45:43Z</time>
</trkpt>
<trkpt lat="40.63143166666667" lon="-3.159718333333333">
<ele>731</ele>
<time>2017-03-01T10:45:45Z</time>
</trkpt>
<trkpt lat="40.63141333333333" lon="-3.159708333333333">
<ele>730</ele>
<time>2017-03-01T10:45:47Z</time>
</trkpt>
<trkpt lat="40.631391666666666" lon="-3.1596983333333335">
<ele>729</ele>
<time>2017-03-01T10:45:49Z</time>
</trkpt>
<trkpt lat="40.631385" lon="-3.159693333333333">
<ele>729</ele>
<time>2017-03-01T10:45:51Z</time>
</trkpt>
<trkpt lat="40.63147666666667" lon="-3.15973">
<ele>726</ele>
<time>2017-03-01T10:45:53Z</time>
</trkpt>
<trkpt lat="40.631481666666666" lon="-3.1597283333333337">
<ele>725</ele>
<time>2017-03-01T10:45:55Z</time>
</trkpt>
<trkpt lat="40.63148" lon="-3.1597250000000003">
<ele>725</ele>
<time>2017-03-01T10:45:57Z</time>
</trkpt>
<trkpt lat="40.63122" lon="-3.1602099999999997">
<ele>713</ele>
<time>2017-03-01T10:39:55Z</time>
</trkpt>
<trkpt lat="40.6312" lon="-3.160071666666667">
<ele>713</ele>
<time>2017-03-01T10:39:57Z</time>
</trkpt>
<trkpt lat="40.63117666666667" lon="-3.160011666666667">
<ele>713</ele>
<time>2017-03-01T10:39:59Z</time>
</trkpt>
<trkpt lat="40.631150000000005" lon="-3.1600233333333336">
<ele>712</ele>
<time>2017-03-01T10:40:01Z</time>
</trkpt>
<trkpt lat="40.631051666666664" lon="-3.1594966666666666">
<ele>765</ele>
<time>2017-03-01T10:41:25Z</time>
</trkpt>
<trkpt lat="40.63100166666666" lon="-3.159405">
<ele>769</ele>
<time>2017-03-01T10:41:27Z</time>
</trkpt>
<trkpt lat="40.63093833333333" lon="-3.1590816666666663">
<ele>789</ele>
<time>2017-03-01T10:42:35Z</time>
</trkpt>
<trkpt lat="40.63153333333333" lon="-3.1597283333333337">
<ele>733</ele>
<time>2017-03-01T10:46:11Z</time>
</trkpt>
<trkpt lat="40.63157" lon="-3.1597416666666667">
<ele>734</ele>
<time>2017-03-01T10:46:13Z</time>
</trkpt>
<trkpt lat="40.63157" lon="-3.1597416666666667">
<ele>734</ele>
<time>2017-03-01T10:46:15Z</time>
</trkpt>
<trkpt lat="40.630995" lon="-3.15902">
<ele>796</ele>
<time>2017-03-01T10:42:43Z</time>
</trkpt>
<trkpt lat="40.63100166666666" lon="-3.1590383333333336">
<ele>796</ele>
<time>2017-03-01T10:42:45Z</time>
</trkpt>
<trkpt lat="40.631031666666665" lon="-3.159071666666667">
<ele>794</ele>
<time>2017-03-01T10:42:47Z</time>
</trkpt>
<trkpt lat="40.63107166666667" lon="-3.159093333333333">
<ele>794</ele>
<time>2017-03-01T10:42:49Z</time>
</trkpt>
<trkpt lat="40.63113166666667" lon="-3.1590849999999997">
<ele>794</ele>
<time>2017-03-01T10:42:51Z</time>
</trkpt>
<trkpt lat="40.63118" lon="-3.159086666666667">
<ele>794</ele>
<time>2017-03-01T10:42:53Z</time>
</trkpt>
<trkpt lat="40.63122166666667" lon="-3.1590816666666663">
<ele>795</ele>
<time>2017-03-01T10:42:55Z</time>
</trkpt>
<trkpt lat="40.63126833333333" lon="-3.1590983333333336">
<ele>794</ele>
<time>2017-03-01T10:42:57Z</time>
</trkpt>
<trkpt lat="40.631235" lon="-3.1591">
<ele>793</ele>
<time>2017-03-01T10:42:59Z</time>
</trkpt>
<trkpt lat="40.63122833333333" lon="-3.159101666666667">
<ele>793</ele>
<time>2017-03-01T10:43:01Z</time>
</trkpt>
<trkpt lat="40.63151666666667" lon="-3.1596666666666664">
<ele>729</ele>
<time>2017-03-01T10:46:31Z</time>
</trkpt>
<trkpt lat="40.63146" lon="-3.1596600000000006">
<ele>728</ele>
<time>2017-03-01T10:46:33Z</time>
</trkpt>
<trkpt lat="40.63140666666666" lon="-3.15964">
<ele>728</ele>
<time>2017-03-01T10:46:35Z</time>
</trkpt>
<trkpt lat="40.63141333333333" lon="-3.1596483333333327">
<ele>729</ele>
<time>2017-03-01T10:46:37Z</time>
</trkpt>
<trkpt lat="40.631425" lon="-3.1596566666666672">
<ele>730</ele>
<time>2017-03-01T10:46:39Z</time>
</trkpt>
<trkpt lat="40.63147166666667" lon="-3.1596566666666672">
<ele>731</ele>
<time>2017-03-01T10:46:41Z</time>
</trkpt>
<trkpt lat="40.631463333333336" lon="-3.15964">
<ele>731</ele>
<time>2017-03-01T10:46:43Z</time>
</trkpt>
<trkpt lat="40.631415" lon="-3.15962">
<ele>729</ele>
<time>2017-03-01T10:46:45Z</time>
</trkpt>
<trkpt lat="40.631435" lon="-3.1596249999999997">
<ele>729</ele>
<time>2017-03-01T10:46:47Z</time>
</trkpt>
<trkpt lat="40.63146" lon="-3.1596450000000003">
<ele>729</ele>
<time>2017-03-01T10:46:49Z</time>
</trkpt>
<trkpt lat="40.63129" lon="-3.1591633333333333">
<ele>795</ele>
<time>2017-03-01T10:43:05Z</time>
</trkpt>
<trkpt lat="40.63124333333334" lon="-3.1591283333333338">
<ele>796</ele>
<time>2017-03-01T10:43:07Z</time>
</trkpt>
<trkpt lat="40.63146666666667" lon="-3.159663333333333">
<ele>730</ele>
<time>2017-03-01T10:46:51Z</time>
</trkpt>
<trkpt lat="40.63118" lon="-3.1591499999999995">
<ele>796</ele>
<time>2017-03-01T10:43:13Z</time>
</trkpt>
<trkpt lat="40.631461666666674" lon="-3.159635">
<ele>732</ele>
<time>2017-03-01T10:46:55Z</time>
</trkpt>
<trkpt lat="40.63146833333334" lon="-3.1596016666666666">
<ele>733</ele>
<time>2017-03-01T10:46:57Z</time>
</trkpt>
<trkpt lat="40.631463333333336" lon="-3.159546666666666">
<ele>733</ele>
<time>2017-03-01T10:46:59Z</time>
</trkpt>
<trkpt lat="40.63145166666666" lon="-3.1594816666666663">
<ele>734</ele>
<time>2017-03-01T10:47:01Z</time>
</trkpt>
<trkpt lat="40.631438333333335" lon="-3.15942">
<ele>735</ele>
<time>2017-03-01T10:47:03Z</time>
</trkpt>
<trkpt lat="40.631425" lon="-3.1593649999999998">
<ele>735</ele>
<time>2017-03-01T10:47:05Z</time>
</trkpt>
<trkpt lat="40.63129833333333" lon="-3.1591716666666665">
<ele>795</ele>
<time>2017-03-01T10:43:23Z</time>
</trkpt>
<trkpt lat="40.63133166666667" lon="-3.159173333333334">
<ele>796</ele>
<time>2017-03-01T10:43:25Z</time>
</trkpt>
<trkpt lat="40.631555000000006" lon="-3.159435">
<ele>738</ele>
<time>2017-03-01T10:47:19Z</time>
</trkpt>
<trkpt lat="40.63140166666667" lon="-3.1591983333333333">
<ele>799</ele>
<time>2017-03-01T10:43:29Z</time>
</trkpt>
<trkpt lat="40.63141333333333" lon="-3.1591850000000004">
<ele>801</ele>
<time>2017-03-01T10:43:31Z</time>
</trkpt>
<trkpt lat="40.63144333333333" lon="-3.159196666666667">
<ele>804</ele>
<time>2017-03-01T10:43:33Z</time>
</trkpt>
<trkpt lat="40.631993333333334" lon="-3.159976666666666">
<ele>753</ele>
<time>2017-03-01T10:47:41Z</time>
</trkpt>
<trkpt lat="40.63146666666667" lon="-3.159191666666666">
<ele>806</ele>
<time>2017-03-01T10:43:35Z</time>
</trkpt>
<trkpt lat="40.631485" lon="-3.159145">
<ele>808</ele>
<time>2017-03-01T10:43:37Z</time>
</trkpt>
<trkpt lat="40.631481666666666" lon="-3.159101666666667">
<ele>810</ele>
<time>2017-03-01T10:43:39Z</time>
</trkpt>
<trkpt lat="40.632034999999995" lon="-3.1597783333333336">
<ele>752</ele>
<time>2017-03-01T10:47:55Z</time>
</trkpt>
<trkpt lat="40.631240000000005" lon="-3.1590683333333334">
<ele>815</ele>
<time>2017-03-01T10:43:45Z</time>
</trkpt>
<trkpt lat="40.63159666666666" lon="-3.1597333333333335">
<ele>751</ele>
<time>2017-03-01T10:47:59Z</time>
</trkpt>
<trkpt lat="40.63153333333333" lon="-3.1597516666666667">
<ele>750</ele>
<time>2017-03-01T10:48:01Z</time>
</trkpt>
<trkpt lat="40.631463333333336" lon="-3.159738333333333">
<ele>750</ele>
<time>2017-03-01T10:48:03Z</time>
</trkpt>
<trkpt lat="40.631393333333335" lon="-3.1597333333333335">
<ele>749</ele>
<time>2017-03-01T10:48:05Z</time>
</trkpt>
<trkpt lat="40.631283333333336" lon="-3.1590899999999995">
<ele>821</ele>
<time>2017-03-01T10:43:53Z</time>
</trkpt>
<trkpt lat="40.63128666666667" lon="-3.159695">
<ele>749</ele>
<time>2017-03-01T10:48:11Z</time>
</trkpt>
<trkpt lat="40.631283333333336" lon="-3.159715">
<ele>750</ele>
<time>2017-03-01T10:48:13Z</time>
</trkpt>
<trkpt lat="40.63127166666666" lon="-3.159716666666667">
<ele>751</ele>
<time>2017-03-01T10:48:15Z</time>
</trkpt>
<trkpt lat="40.63125333333333" lon="-3.1597199999999996">
<ele>751</ele>
<time>2017-03-01T10:48:17Z</time>
</trkpt>
<trkpt lat="40.631235" lon="-3.1597250000000003">
<ele>751</ele>
<time>2017-03-01T10:48:19Z</time>
</trkpt>
<trkpt lat="40.63124833333333" lon="-3.1597766666666662">
<ele>751</ele>
<time>2017-03-01T10:48:21Z</time>
</trkpt>
<trkpt lat="40.631231666666665" lon="-3.15979">
<ele>750</ele>
<time>2017-03-01T10:48:23Z</time>
</trkpt>
<trkpt lat="40.631186666666665" lon="-3.159795">
<ele>750</ele>
<time>2017-03-01T10:48:25Z</time>
</trkpt>
<trkpt lat="40.631165" lon="-3.1598166666666665">
<ele>749</ele>
<time>2017-03-01T10:48:27Z</time>
</trkpt>
<trkpt lat="40.631139999999995" lon="-3.159831666666667">
<ele>749</ele>
<time>2017-03-01T10:48:29Z</time>
</trkpt>
<trkpt lat="40.63114333333333" lon="-3.1598516666666665">
<ele>748</ele>
<time>2017-03-01T10:48:31Z</time>
</trkpt>
<trkpt lat="40.631165" lon="-3.1598650000000004">
<ele>747</ele>
<time>2017-03-01T10:48:33Z</time>
</trkpt>
<trkpt lat="40.63119833333334" lon="-3.159913333333334">
<ele>746</ele>
<time>2017-03-01T10:48:35Z</time>
</trkpt>
<trkpt lat="40.63139666666667" lon="-3.1593433333333336">
<ele>824</ele>
<time>2017-03-01T10:44:05Z</time>
</trkpt>
<trkpt lat="40.63139" lon="-3.1593333333333335">
<ele>826</ele>
<time>2017-03-01T10:44:07Z</time>
</trkpt>
<trkpt lat="40.63137166666667" lon="-3.1592899999999995">
<ele>827</ele>
<time>2017-03-01T10:44:09Z</time>
</trkpt>
<trkpt lat="40.63155666666667" lon="-3.159783333333333">
<ele>738</ele>
<time>2017-03-01T10:45:23Z</time>
</trkpt>
<trkpt lat="40.631605" lon="-3.1603116666666664">
<ele>745</ele>
<time>2017-03-01T10:48:43Z</time>
</trkpt>
<trkpt lat="40.63168333333333" lon="-3.1603866666666667">
<ele>745</ele>
<time>2017-03-01T10:48:45Z</time>
</trkpt>
<trkpt lat="40.631506666666674" lon="-3.1598300000000004">
<ele>727</ele>
<time>2017-03-01T10:45:29Z</time>
</trkpt>
<trkpt lat="40.63146666666667" lon="-3.159848333333333">
<ele>725</ele>
<time>2017-03-01T10:45:31Z</time>
</trkpt>
<trkpt lat="40.63149666666666" lon="-3.1598516666666665">
<ele>725</ele>
<time>2017-03-01T10:45:33Z</time>
</trkpt>
<trkpt lat="40.63149166666667" lon="-3.1598066666666664">
<ele>743</ele>
<time>2017-03-01T10:49:05Z</time>
</trkpt>
<trkpt lat="40.631499999999996" lon="-3.1598249999999997">
<ele>743</ele>
<time>2017-03-01T10:49:07Z</time>
</trkpt>
<trkpt lat="40.63148666666667" lon="-3.159863333333333">
<ele>742</ele>
<time>2017-03-01T10:49:09Z</time>
</trkpt>
<trkpt lat="40.631478333333334" lon="-3.159871666666667">
<ele>742</ele>
<time>2017-03-01T10:49:11Z</time>
</trkpt>
<trkpt lat="40.63148666666667" lon="-3.1598916666666668">
<ele>742</ele>
<time>2017-03-01T10:49:13Z</time>
</trkpt>
<trkpt lat="40.63149" lon="-3.1599049999999997">
<ele>741</ele>
<time>2017-03-01T10:49:15Z</time>
</trkpt>
<trkpt lat="40.631505" lon="-3.1600216666666663">
<ele>711</ele>
<time>2017-03-01T10:49:17Z</time>
</trkpt>
<trkpt lat="40.631501666666665" lon="-3.1600300000000003">
<ele>707</ele>
<time>2017-03-01T10:49:19Z</time>
</trkpt>
<trkpt lat="40.631501666666665" lon="-3.1600300000000003">
<ele>707</ele>
<time>2017-03-01T10:49:21Z</time>
</trkpt>
<trkpt lat="40.63149" lon="-3.1600383333333335">
<ele>706</ele>
<time>2017-03-01T10:49:23Z</time>
</trkpt>
<trkpt lat="40.631528333333335" lon="-3.1600599999999996">
<ele>703</ele>
<time>2017-03-01T10:49:25Z</time>
</trkpt>
<trkpt lat="40.631546666666665" lon="-3.160071666666667">
<ele>703</ele>
<time>2017-03-01T10:49:27Z</time>
</trkpt>
<trkpt lat="40.631568333333334" lon="-3.160078333333333">
<ele>703</ele>
<time>2017-03-01T10:49:29Z</time>
</trkpt>
<trkpt lat="40.63159333333333" lon="-3.160085">
<ele>702</ele>
<time>2017-03-01T10:49:31Z</time>
</trkpt>
<trkpt lat="40.631636666666665" lon="-3.1600899999999994">
<ele>701</ele>
<time>2017-03-01T10:49:33Z</time>
</trkpt>
<trkpt lat="40.631656666666665" lon="-3.1601033333333333">
<ele>700</ele>
<time>2017-03-01T10:49:35Z</time>
</trkpt>
<trkpt lat="40.631675" lon="-3.1601133333333338">
<ele>700</ele>
<time>2017-03-01T10:49:37Z</time>
</trkpt>
<trkpt lat="40.63169666666667" lon="-3.1601250000000003">
<ele>699</ele>
<time>2017-03-01T10:49:39Z</time>
</trkpt>
<trkpt lat="40.63172" lon="-3.1601250000000003">
<ele>700</ele>
<time>2017-03-01T10:49:41Z</time>
</trkpt>
<trkpt lat="40.63144333333333" lon="-3.15971">
<ele>729</ele>
<time>2017-03-01T10:46:05Z</time>
</trkpt>
<trkpt lat="40.631755" lon="-3.16013">
<ele>697</ele>
<time>2017-03-01T10:49:45Z</time>
</trkpt>
<trkpt lat="40.63175833333333" lon="-3.1601349999999995">
<ele>697</ele>
<time>2017-03-01T10:49:47Z</time>
</trkpt>
<trkpt lat="40.631769999999996" lon="-3.1601483333333333">
<ele>697</ele>
<time>2017-03-01T10:49:49Z</time>
</trkpt>
<trkpt lat="40.63175666666667" lon="-3.160195">
<ele>700</ele>
<time>2017-03-01T10:49:51Z</time>
</trkpt>
<trkpt lat="40.631721666666664" lon="-3.160308333333333">
<ele>694</ele>
<time>2017-03-01T10:49:53Z</time>
</trkpt>
<trkpt lat="40.63172" lon="-3.16039">
<ele>685</ele>
<time>2017-03-01T10:49:55Z</time>
</trkpt>
<trkpt lat="40.63157" lon="-3.1597416666666667">
<ele>734</ele>
<time>2017-03-01T10:46:17Z</time>
</trkpt>
<trkpt lat="40.631591666666665" lon="-3.1597416666666667">
<ele>726</ele>
<time>2017-03-01T10:46:19Z</time>
</trkpt>
<trkpt lat="40.63158" lon="-3.159716666666667">
<ele>728</ele>
<time>2017-03-01T10:46:21Z</time>
</trkpt>
<trkpt lat="40.631575" lon="-3.159715">
<ele>729</ele>
<time>2017-03-01T10:46:23Z</time>
</trkpt>
<trkpt lat="40.631695" lon="-3.160508333333333">
<ele>694</ele>
<time>2017-03-01T10:50:01Z</time>
</trkpt>
<trkpt lat="40.631766666666664" lon="-3.160535">
<ele>695</ele>
<time>2017-03-01T10:50:03Z</time>
</trkpt>
<trkpt lat="40.631845" lon="-3.1605483333333333">
<ele>696</ele>
<time>2017-03-01T10:50:05Z</time>
</trkpt>
<trkpt lat="40.63192" lon="-3.1606883333333333">
<ele>696</ele>
<time>2017-03-01T10:50:07Z</time>
</trkpt>
<trkpt lat="40.63151666666667" lon="-3.1596666666666664">
<ele>729</ele>
<time>2017-03-01T10:46:31Z</time>
</trkpt>
<trkpt lat="40.63146" lon="-3.1596600000000006">
<ele>728</ele>
<time>2017-03-01T10:46:33Z</time>
</trkpt>
<trkpt lat="40.632079999999995" lon="-3.16064">
<ele>697</ele>
<time>2017-03-01T10:50:13Z</time>
</trkpt>
<trkpt lat="40.63147166666667" lon="-3.1596566666666672">
<ele>731</ele>
<time>2017-03-01T10:46:41Z</time>
</trkpt>
<trkpt lat="40.631463333333336" lon="-3.15964">
<ele>731</ele>
<time>2017-03-01T10:46:43Z</time>
</trkpt>
<trkpt lat="40.631415" lon="-3.15962">
<ele>729</ele>
<time>2017-03-01T10:46:45Z</time>
</trkpt>
<trkpt lat="40.63204666666666" lon="-3.1606549999999998">
<ele>695</ele>
<time>2017-03-01T10:50:17Z</time>
</trkpt>
<trkpt lat="40.63204666666666" lon="-3.1606549999999998">
<ele>695</ele>
<time>2017-03-01T10:50:19Z</time>
</trkpt>
<trkpt lat="40.63204666666666" lon="-3.1606549999999998">
<ele>695</ele>
<time>2017-03-01T10:50:21Z</time>
</trkpt>
<trkpt lat="40.63204666666666" lon="-3.1606549999999998">
<ele>695</ele>
<time>2017-03-01T10:50:23Z</time>
</trkpt>
<trkpt lat="40.632061666666665" lon="-3.160671666666667">
<ele>697</ele>
<time>2017-03-01T10:50:25Z</time>
</trkpt>
<trkpt lat="40.63207166666667" lon="-3.1606449999999997">
<ele>698</ele>
<time>2017-03-01T10:50:27Z</time>
</trkpt>
<trkpt lat="40.63146833333334" lon="-3.1596016666666666">
<ele>733</ele>
<time>2017-03-01T10:46:57Z</time>
</trkpt>
<trkpt lat="40.631463333333336" lon="-3.159546666666666">
<ele>733</ele>
<time>2017-03-01T10:46:59Z</time>
</trkpt>
<trkpt lat="40.63145166666666" lon="-3.1594816666666663">
<ele>734</ele>
<time>2017-03-01T10:47:01Z</time>
</trkpt>
<trkpt lat="40.631438333333335" lon="-3.15942">
<ele>735</ele>
<time>2017-03-01T10:47:03Z</time>
</trkpt>
<trkpt lat="40.631425" lon="-3.1593649999999998">
<ele>735</ele>
<time>2017-03-01T10:47:05Z</time>
</trkpt>
<trkpt lat="40.631420000000006" lon="-3.1593216666666666">
<ele>736</ele>
<time>2017-03-01T10:47:07Z</time>
</trkpt>
<trkpt lat="40.63221166666666" lon="-3.1611766666666665">
<ele>702</ele>
<time>2017-03-01T10:50:55Z</time>
</trkpt>
<trkpt lat="40.632243333333335" lon="-3.1610599999999995">
<ele>704</ele>
<time>2017-03-01T10:50:57Z</time>
</trkpt>
<trkpt lat="40.63223833333333" lon="-3.1609783333333334">
<ele>705</ele>
<time>2017-03-01T10:50:59Z</time>
</trkpt>
<trkpt lat="40.632243333333335" lon="-3.160915">
<ele>706</ele>
<time>2017-03-01T10:51:01Z</time>
</trkpt>
<trkpt lat="40.632255" lon="-3.160876666666667">
<ele>707</ele>
<time>2017-03-01T10:51:03Z</time>
</trkpt>
<trkpt lat="40.63228166666667" lon="-3.1608150000000004">
<ele>708</ele>
<time>2017-03-01T10:51:05Z</time>
</trkpt>
<trkpt lat="40.631645000000006" lon="-3.1597016666666673">
<ele>744</ele>
<time>2017-03-01T10:47:27Z</time>
</trkpt>
<trkpt lat="40.63162333333333" lon="-3.1596966666666666">
<ele>745</ele>
<time>2017-03-01T10:47:29Z</time>
</trkpt>
<trkpt lat="40.631615000000004" lon="-3.159708333333333">
<ele>746</ele>
<time>2017-03-01T10:47:31Z</time>
</trkpt>
<trkpt lat="40.63156" lon="-3.1597716666666664">
<ele>747</ele>
<time>2017-03-01T10:47:33Z</time>
</trkpt>
<trkpt lat="40.631391666666666" lon="-3.1598916666666668">
<ele>746</ele>
<time>2017-03-01T10:47:35Z</time>
</trkpt>
<trkpt lat="40.63229833333333" lon="-3.160581666666667">
<ele>714</ele>
<time>2017-03-01T10:51:17Z</time>
</trkpt>
<trkpt lat="40.631645000000006" lon="-3.1599799999999996">
<ele>751</ele>
<time>2017-03-01T10:47:39Z</time>
</trkpt>
<trkpt lat="40.631993333333334" lon="-3.159976666666666">
<ele>753</ele>
<time>2017-03-01T10:47:41Z</time>
</trkpt>
<trkpt lat="40.63213666666666" lon="-3.1600200000000003">
<ele>754</ele>
<time>2017-03-01T10:47:43Z</time>
</trkpt>
<trkpt lat="40.632196666666665" lon="-3.1598216666666663">
<ele>753</ele>
<time>2017-03-01T10:47:49Z</time>
</trkpt>
<trkpt lat="40.632034999999995" lon="-3.1597783333333336">
<ele>752</ele>
<time>2017-03-01T10:47:55Z</time>
</trkpt>
<trkpt lat="40.632105" lon="-3.160516666666666">
<ele>719</ele>
<time>2017-03-01T10:51:33Z</time>
</trkpt>
<trkpt lat="40.632061666666665" lon="-3.160585">
<ele>719</ele>
<time>2017-03-01T10:51:35Z</time>
</trkpt>
<trkpt lat="40.63159666666666" lon="-3.1597333333333335">
<ele>751</ele>
<time>2017-03-01T10:47:59Z</time>
</trkpt>
<trkpt lat="40.63153333333333" lon="-3.1597516666666667">
<ele>750</ele>
<time>2017-03-01T10:48:01Z</time>
</trkpt>
<trkpt lat="40.631463333333336" lon="-3.159738333333333">
<ele>750</ele>
<time>2017-03-01T10:48:03Z</time>
</trkpt>
<trkpt lat="40.631393333333335" lon="-3.1597333333333335">
<ele>749</ele>
<time>2017-03-01T10:48:05Z</time>
</trkpt>
<trkpt lat="40.631343333333334" lon="-3.159746666666666">
<ele>749</ele>
<time>2017-03-01T10:48:07Z</time>
</trkpt>
<trkpt lat="40.63131666666666" lon="-3.1597333333333335">
<ele>748</ele>
<time>2017-03-01T10:48:09Z</time>
</trkpt>
<trkpt lat="40.63128666666667" lon="-3.159695">
<ele>749</ele>
<time>2017-03-01T10:48:11Z</time>
</trkpt>
<trkpt lat="40.631283333333336" lon="-3.159715">
<ele>750</ele>
<time>2017-03-01T10:48:13Z</time>
</trkpt>
<trkpt lat="40.63127166666666" lon="-3.159716666666667">
<ele>751</ele>
<time>2017-03-01T10:48:15Z</time>
</trkpt>
<trkpt lat="40.631835" lon="-3.1608666666666663">
<ele>718</ele>
<time>2017-03-01T10:51:53Z</time>
</trkpt>
<trkpt lat="40.631798333333336" lon="-3.1608449999999997">
<ele>719</ele>
<time>2017-03-01T10:51:55Z</time>
</trkpt>
<trkpt lat="40.631703333333334" lon="-3.1608150000000004">
<ele>718</ele>
<time>2017-03-01T10:51:57Z</time>
</trkpt>
<trkpt lat="40.631676666666664" lon="-3.1608016666666665">
<ele>718</ele>
<time>2017-03-01T10:51:59Z</time>
</trkpt>
<trkpt lat="40.631676666666664" lon="-3.1608016666666665">
<ele>718</ele>
<time>2017-03-01T10:52:01Z</time>
</trkpt>
<trkpt lat="40.631676666666664" lon="-3.1608016666666665">
<ele>718</ele>
<time>2017-03-01T10:52:03Z</time>
</trkpt>
<trkpt lat="40.63161" lon="-3.1607633333333336">
<ele>719</ele>
<time>2017-03-01T10:52:05Z</time>
</trkpt>
<trkpt lat="40.631589999999996" lon="-3.1607499999999997">
<ele>719</ele>
<time>2017-03-01T10:52:07Z</time>
</trkpt>
<trkpt lat="40.631568333333334" lon="-3.1607366666666667">
<ele>719</ele>
<time>2017-03-01T10:52:09Z</time>
</trkpt>
<trkpt lat="40.63154833333333" lon="-3.1607183333333335">
<ele>719</ele>
<time>2017-03-01T10:52:11Z</time>
</trkpt>
<trkpt lat="40.631506666666674" lon="-3.1606099999999997">
<ele>720</ele>
<time>2017-03-01T10:52:13Z</time>
</trkpt>
<trkpt lat="40.63130666666667" lon="-3.1599333333333335">
<ele>746</ele>
<time>2017-03-01T10:48:37Z</time>
</trkpt>
<trkpt lat="40.63143" lon="-3.1600066666666664">
<ele>746</ele>
<time>2017-03-01T10:48:39Z</time>
</trkpt>
<trkpt lat="40.631521666666664" lon="-3.1601649999999997">
<ele>746</ele>
<time>2017-03-01T10:48:41Z</time>
</trkpt>
<trkpt lat="40.631478333333334" lon="-3.160385">
<ele>721</ele>
<time>2017-03-01T10:52:23Z</time>
</trkpt>
<trkpt lat="40.63163833333333" lon="-3.1604650000000003">
<ele>722</ele>
<time>2017-03-01T10:52:25Z</time>
</trkpt>
<trkpt lat="40.631771666666666" lon="-3.160486666666667">
<ele>722</ele>
<time>2017-03-01T10:52:27Z</time>
</trkpt>
<trkpt lat="40.631645000000006" lon="-3.16068">
<ele>723</ele>
<time>2017-03-01T10:52:29Z</time>
</trkpt>
<trkpt lat="40.63177333333333" lon="-3.1604699999999997">
<ele>744</ele>
<time>2017-03-01T10:48:49Z</time>
</trkpt>
<trkpt lat="40.63162333333333" lon="-3.1598216666666663">
<ele>743</ele>
<time>2017-03-01T10:49:03Z</time>
</trkpt>
<trkpt lat="40.63144166666667" lon="-3.1603483333333333">
<ele>723</ele>
<time>2017-03-01T10:52:31Z</time>
</trkpt>
<trkpt lat="40.63140666666666" lon="-3.1603516666666667">
<ele>724</ele>
<time>2017-03-01T10:52:33Z</time>
</trkpt>
<trkpt lat="40.63140666666666" lon="-3.1603516666666667">
<ele>724</ele>
<time>2017-03-01T10:52:35Z</time>
</trkpt>
<trkpt lat="40.631505" lon="-3.1604916666666667">
<ele>722</ele>
<time>2017-03-01T10:52:37Z</time>
</trkpt>
<trkpt lat="40.631541666666664" lon="-3.1605283333333336">
<ele>721</ele>
<time>2017-03-01T10:52:39Z</time>
</trkpt>
<trkpt lat="40.631521666666664" lon="-3.1605266666666667">
<ele>721</ele>
<time>2017-03-01T10:52:41Z</time>
</trkpt>
<trkpt lat="40.631505" lon="-3.1600216666666663">
<ele>711</ele>
<time>2017-03-01T10:49:17Z</time>
</trkpt>
<trkpt lat="40.631501666666665" lon="-3.1600300000000003">
<ele>707</ele>
<time>2017-03-01T10:49:19Z</time>
</trkpt>
<trkpt lat="40.63154" lon="-3.160566666666667">
<ele>722</ele>
<time>2017-03-01T10:52:45Z</time>
</trkpt>
<trkpt lat="40.63155166666666" lon="-3.160575">
<ele>722</ele>
<time>2017-03-01T10:52:47Z</time>
</trkpt>
<trkpt lat="40.63149" lon="-3.1600383333333335">
<ele>706</ele>
<time>2017-03-01T10:49:23Z</time>
</trkpt>
<trkpt lat="40.631528333333335" lon="-3.1600599999999996">
<ele>703</ele>
<time>2017-03-01T10:49:25Z</time>
</trkpt>
<trkpt lat="40.63155166666666" lon="-3.160575">
<ele>722</ele>
<time>2017-03-01T10:52:51Z</time>
</trkpt>
<trkpt lat="40.63159333333333" lon="-3.160085">
<ele>702</ele>
<time>2017-03-01T10:49:31Z</time>
</trkpt>
<trkpt lat="40.631636666666665" lon="-3.1600899999999994">
<ele>701</ele>
<time>2017-03-01T10:49:33Z</time>
</trkpt>
<trkpt lat="40.631656666666665" lon="-3.1601033333333333">
<ele>700</ele>
<time>2017-03-01T10:49:35Z</time>
</trkpt>
<trkpt lat="40.63143166666667" lon="-3.1606333333333327">
<ele>721</ele>
<time>2017-03-01T10:53:03Z</time>
</trkpt>
<trkpt lat="40.631420000000006" lon="-3.1606449999999997">
<ele>721</ele>
<time>2017-03-01T10:53:05Z</time>
</trkpt>
<trkpt lat="40.63140833333333" lon="-3.1606449999999997">
<ele>721</ele>
<time>2017-03-01T10:53:07Z</time>
</trkpt>
<trkpt lat="40.631385" lon="-3.160648333333333">
<ele>721</ele>
<time>2017-03-01T10:53:09Z</time>
</trkpt>
<trkpt lat="40.63136333333333" lon="-3.1606283333333334">
<ele>721</ele>
<time>2017-03-01T10:53:11Z</time>
</trkpt>
<trkpt lat="40.63135833333333" lon="-3.160598333333333">
<ele>721</ele>
<time>2017-03-01T10:53:13Z</time>
</trkpt>
<trkpt lat="40.631355" lon="-3.1605833333333333">
<ele>721</ele>
<time>2017-03-01T10:53:15Z</time>
</trkpt>
<trkpt lat="40.631321666666665" lon="-3.160551666666667">
<ele>722</ele>
<time>2017-03-01T10:53:17Z</time>
</trkpt>
<trkpt lat="40.63175833333333" lon="-3.1601349999999995">
<ele>697</ele>
<time>2017-03-01T10:49:47Z</time>
</trkpt>
<trkpt lat="40.631769999999996" lon="-3.1601483333333333">
<ele>697</ele>
<time>2017-03-01T10:49:49Z</time>
</trkpt>
<trkpt lat="40.63175666666667" lon="-3.160195">
<ele>700</ele>
<time>2017-03-01T10:49:51Z</time>
</trkpt>
<trkpt lat="40.631721666666664" lon="-3.160308333333333">
<ele>694</ele>
<time>2017-03-01T10:49:53Z</time>
</trkpt>
<trkpt lat="40.63172" lon="-3.16039">
<ele>685</ele>
<time>2017-03-01T10:49:55Z</time>
</trkpt>
<trkpt lat="40.63169166666667" lon="-3.160403333333333">
<ele>693</ele>
<time>2017-03-01T10:49:57Z</time>
</trkpt>
<trkpt lat="40.63168333333333" lon="-3.1604516666666664">
<ele>694</ele>
<time>2017-03-01T10:49:59Z</time>
</trkpt>
<trkpt lat="40.631695" lon="-3.160508333333333">
<ele>694</ele>
<time>2017-03-01T10:50:01Z</time>
</trkpt>
<trkpt lat="40.631766666666664" lon="-3.160535">
<ele>695</ele>
<time>2017-03-01T10:50:03Z</time>
</trkpt>
<trkpt lat="40.631845" lon="-3.1605483333333333">
<ele>696</ele>
<time>2017-03-01T10:50:05Z</time>
</trkpt>
<trkpt lat="40.631416666666674" lon="-3.1604666666666663">
<ele>721</ele>
<time>2017-03-01T10:53:41Z</time>
</trkpt>
<trkpt lat="40.63197666666667" lon="-3.1606816666666666">
<ele>697</ele>
<time>2017-03-01T10:50:09Z</time>
</trkpt>
<trkpt lat="40.632023333333336" lon="-3.16065">
<ele>697</ele>
<time>2017-03-01T10:50:11Z</time>
</trkpt>
<trkpt lat="40.632079999999995" lon="-3.16064">
<ele>697</ele>
<time>2017-03-01T10:50:13Z</time>
</trkpt>
<trkpt lat="40.63142166666667" lon="-3.160543333333334">
<ele>720</ele>
<time>2017-03-01T10:53:47Z</time>
</trkpt>
<trkpt lat="40.63144666666667" lon="-3.1605633333333336">
<ele>720</ele>
<time>2017-03-01T10:53:49Z</time>
</trkpt>
<trkpt lat="40.63144666666667" lon="-3.1605633333333336">
<ele>720</ele>
<time>2017-03-01T10:53:51Z</time>
</trkpt>
<trkpt lat="40.632105" lon="-3.160661666666667">
<ele>700</ele>
<time>2017-03-01T10:50:33Z</time>
</trkpt>
<trkpt lat="40.6321" lon="-3.160648333333333">
<ele>700</ele>
<time>2017-03-01T10:50:35Z</time>
</trkpt>
<trkpt lat="40.63145166666666" lon="-3.160698333333334">
<ele>717</ele>
<time>2017-03-01T10:53:57Z</time>
</trkpt>
<trkpt lat="40.63140333333333" lon="-3.160753333333333">
<ele>716</ele>
<time>2017-03-01T10:53:59Z</time>
</trkpt>
<trkpt lat="40.63136333333333" lon="-3.16074">
<ele>716</ele>
<time>2017-03-01T10:54:01Z</time>
</trkpt>
<trkpt lat="40.632065" lon="-3.1610683333333336">
<ele>702</ele>
<time>2017-03-01T10:50:43Z</time>
</trkpt>
<trkpt lat="40.632126666666665" lon="-3.16119">
<ele>701</ele>
<time>2017-03-01T10:50:45Z</time>
</trkpt>
<trkpt lat="40.63218" lon="-3.1612866666666672">
<ele>702</ele>
<time>2017-03-01T10:50:47Z</time>
</trkpt>
<trkpt lat="40.63223833333333" lon="-3.1613400000000005">
<ele>702</ele>
<time>2017-03-01T10:50:49Z</time>
</trkpt>
<trkpt lat="40.631373333333336" lon="-3.1605550000000004">
<ele>716</ele>
<time>2017-03-01T10:54:11Z</time>
</trkpt>
<trkpt lat="40.63130833333333" lon="-3.160663333333333">
<ele>714</ele>
<time>2017-03-01T10:54:15Z</time>
</trkpt>
<trkpt lat="40.63143166666667" lon="-3.1607133333333337">
<ele>715</ele>
<time>2017-03-01T10:54:17Z</time>
</trkpt>
<trkpt lat="40.63132333333333" lon="-3.160658333333333">
<ele>715</ele>
<time>2017-03-01T10:54:19Z</time>
</trkpt>
<trkpt lat="40.632221666666666" lon="-3.161278333333333">
<ele>702</ele>
<time>2017-03-01T10:50:53Z</time>
</trkpt>
<trkpt lat="40.63221166666666" lon="-3.1611766666666665">
<ele>702</ele>
<time>2017-03-01T10:50:55Z</time>
</trkpt>
<trkpt lat="40.632243333333335" lon="-3.1610599999999995">
<ele>704</ele>
<time>2017-03-01T10:50:57Z</time>
</trkpt>
<trkpt lat="40.631345" lon="-3.160723333333333">
<ele>717</ele>
<time>2017-03-01T10:54:29Z</time>
</trkpt>
<trkpt lat="40.631345" lon="-3.160723333333333">
<ele>717</ele>
<time>2017-03-01T10:54:31Z</time>
</trkpt>
<trkpt lat="40.631345" lon="-3.160723333333333">
<ele>717</ele>
<time>2017-03-01T10:54:33Z</time>
</trkpt>
<trkpt lat="40.63228166666667" lon="-3.1608150000000004">
<ele>708</ele>
<time>2017-03-01T10:51:05Z</time>
</trkpt>
<trkpt lat="40.63230166666666" lon="-3.1607649999999996">
<ele>708</ele>
<time>2017-03-01T10:51:07Z</time>
</trkpt>
<trkpt lat="40.63232666666667" lon="-3.1607416666666666">
<ele>709</ele>
<time>2017-03-01T10:51:09Z</time>
</trkpt>
<trkpt lat="40.63139833333333" lon="-3.160751666666667">
<ele>718</ele>
<time>2017-03-01T10:54:41Z</time>
</trkpt>
<trkpt lat="40.63125" lon="-3.1607049999999997">
<ele>719</ele>
<time>2017-03-01T10:54:43Z</time>
</trkpt>
<trkpt lat="40.63120666666667" lon="-3.1606466666666666">
<ele>719</ele>
<time>2017-03-01T10:54:45Z</time>
</trkpt>
<trkpt lat="40.63118166666666" lon="-3.1606283333333334">
<ele>719</ele>
<time>2017-03-01T10:54:47Z</time>
</trkpt>
<trkpt lat="40.63118166666666" lon="-3.1606283333333334">
<ele>719</ele>
<time>2017-03-01T10:54:49Z</time>
</trkpt>
<trkpt lat="40.63226833333333" lon="-3.160568333333333">
<ele>714</ele>
<time>2017-03-01T10:51:19Z</time>
</trkpt>
<trkpt lat="40.63226833333333" lon="-3.160568333333333">
<ele>714</ele>
<time>2017-03-01T10:51:21Z</time>
</trkpt>
<trkpt lat="40.63226833333333" lon="-3.160568333333333">
<ele>714</ele>
<time>2017-03-01T10:51:23Z</time>
</trkpt>
<trkpt lat="40.632195" lon="-3.1605566666666665">
<ele>716</ele>
<time>2017-03-01T10:51:25Z</time>
</trkpt>
<trkpt lat="40.63215666666667" lon="-3.1605483333333333">
<ele>716</ele>
<time>2017-03-01T10:51:27Z</time>
</trkpt>
<trkpt lat="40.63118166666666" lon="-3.1606283333333334">
<ele>719</ele>
<time>2017-03-01T10:54:53Z</time>
</trkpt>
<trkpt lat="40.63118166666666" lon="-3.1606283333333334">
<ele>719</ele>
<time>2017-03-01T10:54:55Z</time>
</trkpt>
<trkpt lat="40.63118166666666" lon="-3.1606283333333334">
<ele>719</ele>
<time>2017-03-01T10:54:57Z</time>
</trkpt>
<trkpt lat="40.63118166666666" lon="-3.1606283333333334">
<ele>719</ele>
<time>2017-03-01T10:54:59Z</time>
</trkpt>
<trkpt lat="40.63118166666666" lon="-3.1606283333333334">
<ele>719</ele>
<time>2017-03-01T10:55:01Z</time>
</trkpt>
<trkpt lat="40.63118166666666" lon="-3.1606283333333334">
<ele>719</ele>
<time>2017-03-01T10:55:03Z</time>
</trkpt>
<trkpt lat="40.63118166666666" lon="-3.1606283333333334">
<ele>719</ele>
<time>2017-03-01T10:55:05Z</time>
</trkpt>
<trkpt lat="40.63118166666666" lon="-3.1606283333333334">
<ele>719</ele>
<time>2017-03-01T10:55:07Z</time>
</trkpt>
<trkpt lat="40.63196833333333" lon="-3.160935">
<ele>717</ele>
<time>2017-03-01T10:51:49Z</time>
</trkpt>
<trkpt lat="40.63118166666666" lon="-3.1606283333333334">
<ele>719</ele>
<time>2017-03-01T10:55:11Z</time>
</trkpt>
<trkpt lat="40.63109" lon="-3.160618333333333">
<ele>720</ele>
<time>2017-03-01T10:55:13Z</time>
</trkpt>
<trkpt lat="40.63106333333334" lon="-3.160598333333333">
<ele>719</ele>
<time>2017-03-01T10:55:15Z</time>
</trkpt>
<trkpt lat="40.63106333333334" lon="-3.160598333333333">
<ele>719</ele>
<time>2017-03-01T10:55:17Z</time>
</trkpt>
<trkpt lat="40.63106333333334" lon="-3.160598333333333">
<ele>719</ele>
<time>2017-03-01T10:55:19Z</time>
</trkpt>
<trkpt lat="40.63106333333334" lon="-3.160598333333333">
<ele>719</ele>
<time>2017-03-01T10:55:21Z</time>
</trkpt>
<trkpt lat="40.63106333333334" lon="-3.160598333333333">
<ele>719</ele>
<time>2017-03-01T10:55:23Z</time>
</trkpt>
<trkpt lat="40.63106333333334" lon="-3.160598333333333">
<ele>719</ele>
<time>2017-03-01T10:55:25Z</time>
</trkpt>
<trkpt lat="40.631589999999996" lon="-3.1607499999999997">
<ele>719</ele>
<time>2017-03-01T10:52:07Z</time>
</trkpt>
<trkpt lat="40.631568333333334" lon="-3.1607366666666667">
<ele>719</ele>
<time>2017-03-01T10:52:09Z</time>
</trkpt>
<trkpt lat="40.63154833333333" lon="-3.1607183333333335">
<ele>719</ele>
<time>2017-03-01T10:52:11Z</time>
</trkpt>
<trkpt lat="40.631506666666674" lon="-3.1606099999999997">
<ele>720</ele>
<time>2017-03-01T10:52:13Z</time>
</trkpt>
<trkpt lat="40.631049999999995" lon="-3.160616666666667">
<ele>717</ele>
<time>2017-03-01T10:55:39Z</time>
</trkpt>
<trkpt lat="40.631049999999995" lon="-3.160616666666667">
<ele>717</ele>
<time>2017-03-01T10:55:41Z</time>
</trkpt>
<trkpt lat="40.631049999999995" lon="-3.160616666666667">
<ele>717</ele>
<time>2017-03-01T10:55:43Z</time>
</trkpt>
<trkpt lat="40.631510000000006" lon="-3.160498333333334">
<ele>720</ele>
<time>2017-03-01T10:52:17Z</time>
</trkpt>
<trkpt lat="40.63094" lon="-3.160626666666667">
<ele>721</ele>
<time>2017-03-01T10:55:47Z</time>
</trkpt>
<trkpt lat="40.63092166666667" lon="-3.1606300000000003">
<ele>722</ele>
<time>2017-03-01T10:55:49Z</time>
</trkpt>
<trkpt lat="40.63092166666667" lon="-3.1606300000000003">
<ele>722</ele>
<time>2017-03-01T10:55:51Z</time>
</trkpt>
<trkpt lat="40.63092166666667" lon="-3.1606300000000003">
<ele>722</ele>
<time>2017-03-01T10:55:53Z</time>
</trkpt>
<trkpt lat="40.63163833333333" lon="-3.1604650000000003">
<ele>722</ele>
<time>2017-03-01T10:52:25Z</time>
</trkpt>
<trkpt lat="40.631771666666666" lon="-3.160486666666667">
<ele>722</ele>
<time>2017-03-01T10:52:27Z</time>
</trkpt>
<trkpt lat="40.631645000000006" lon="-3.16068">
<ele>723</ele>
<time>2017-03-01T10:52:29Z</time>
</trkpt>
<trkpt lat="40.63144166666667" lon="-3.1603483333333333">
<ele>723</ele>
<time>2017-03-01T10:52:31Z</time>
</trkpt>
<trkpt lat="40.63140666666666" lon="-3.1603516666666667">
<ele>724</ele>
<time>2017-03-01T10:52:33Z</time>
</trkpt>
<trkpt lat="40.63140666666666" lon="-3.1603516666666667">
<ele>724</ele>
<time>2017-03-01T10:52:35Z</time>
</trkpt>
<trkpt lat="40.631505" lon="-3.1604916666666667">
<ele>722</ele>
<time>2017-03-01T10:52:37Z</time>
</trkpt>
<trkpt lat="40.631541666666664" lon="-3.1605283333333336">
<ele>721</ele>
<time>2017-03-01T10:52:39Z</time>
</trkpt>
<trkpt lat="40.631521666666664" lon="-3.1605266666666667">
<ele>721</ele>
<time>2017-03-01T10:52:41Z</time>
</trkpt>
<trkpt lat="40.631535" lon="-3.160545">
<ele>722</ele>
<time>2017-03-01T10:52:43Z</time>
</trkpt>
<trkpt lat="40.63084333333334" lon="-3.16067">
<ele>720</ele>
<time>2017-03-01T10:56:09Z</time>
</trkpt>
<trkpt lat="40.63082166666666" lon="-3.1606683333333336">
<ele>720</ele>
<time>2017-03-01T10:56:11Z</time>
</trkpt>
<trkpt lat="40.63155166666666" lon="-3.160575">
<ele>722</ele>
<time>2017-03-01T10:52:47Z</time>
</trkpt>
<trkpt lat="40.63077833333333" lon="-3.160621666666666">
<ele>720</ele>
<time>2017-03-01T10:56:17Z</time>
</trkpt>
<trkpt lat="40.63077833333333" lon="-3.160621666666666">
<ele>720</ele>
<time>2017-03-01T10:56:19Z</time>
</trkpt>
<trkpt lat="40.63077833333333" lon="-3.160621666666666">
<ele>720</ele>
<time>2017-03-01T10:56:21Z</time>
</trkpt>
<trkpt lat="40.63077833333333" lon="-3.160621666666666">
<ele>720</ele>
<time>2017-03-01T10:56:23Z</time>
</trkpt>
<trkpt lat="40.63077833333333" lon="-3.160621666666666">
<ele>720</ele>
<time>2017-03-01T10:56:25Z</time>
</trkpt>
<trkpt lat="40.63077833333333" lon="-3.160621666666666">
<ele>720</ele>
<time>2017-03-01T10:56:27Z</time>
</trkpt>
<trkpt lat="40.63155166666666" lon="-3.160575">
<ele>722</ele>
<time>2017-03-01T10:52:57Z</time>
</trkpt>
<trkpt lat="40.63155166666666" lon="-3.160575">
<ele>722</ele>
<time>2017-03-01T10:52:59Z</time>
</trkpt>
<trkpt lat="40.63145" lon="-3.160611666666667">
<ele>721</ele>
<time>2017-03-01T10:53:01Z</time>
</trkpt>
<trkpt lat="40.63077833333333" lon="-3.160621666666666">
<ele>720</ele>
<time>2017-03-01T10:56:29Z</time>
</trkpt>
<trkpt lat="40.63143166666667" lon="-3.1606333333333327">
<ele>721</ele>
<time>2017-03-01T10:53:03Z</time>
</trkpt>
<trkpt lat="40.631420000000006" lon="-3.1606449999999997">
<ele>721</ele>
<time>2017-03-01T10:53:05Z</time>
</trkpt>
<trkpt lat="40.63140833333333" lon="-3.1606449999999997">
<ele>721</ele>
<time>2017-03-01T10:53:07Z</time>
</trkpt>
<trkpt lat="40.631385" lon="-3.160648333333333">
<ele>721</ele>
<time>2017-03-01T10:53:09Z</time>
</trkpt>
<trkpt lat="40.63136333333333" lon="-3.1606283333333334">
<ele>721</ele>
<time>2017-03-01T10:53:11Z</time>
</trkpt>
<trkpt lat="40.63135833333333" lon="-3.160598333333333">
<ele>721</ele>
<time>2017-03-01T10:53:13Z</time>
</trkpt>
<trkpt lat="40.631355" lon="-3.1605833333333333">
<ele>721</ele>
<time>2017-03-01T10:53:15Z</time>
</trkpt>
<trkpt lat="40.63057" lon="-3.160535">
<ele>720</ele>
<time>2017-03-01T10:56:47Z</time>
</trkpt>
<trkpt lat="40.63053" lon="-3.1605383333333332">
<ele>720</ele>
<time>2017-03-01T10:56:49Z</time>
</trkpt>
<trkpt lat="40.63130833333333" lon="-3.1605366666666668">
<ele>722</ele>
<time>2017-03-01T10:53:19Z</time>
</trkpt>
<trkpt lat="40.63129166666667" lon="-3.1604883333333333">
<ele>722</ele>
<time>2017-03-01T10:53:21Z</time>
</trkpt>
<trkpt lat="40.63128833333334" lon="-3.160471666666667">
<ele>722</ele>
<time>2017-03-01T10:53:23Z</time>
</trkpt>
<trkpt lat="40.6305" lon="-3.1605383333333332">
<ele>720</ele>
<time>2017-03-01T10:56:53Z</time>
</trkpt>
<trkpt lat="40.63050166666667" lon="-3.160543333333334">
<ele>720</ele>
<time>2017-03-01T10:56:55Z</time>
</trkpt>
<trkpt lat="40.63050166666667" lon="-3.160543333333334">
<ele>720</ele>
<time>2017-03-01T10:56:57Z</time>
</trkpt>
<trkpt lat="40.63045833333333" lon="-3.160521666666667">
<ele>720</ele>
<time>2017-03-01T10:56:59Z</time>
</trkpt>
<trkpt lat="40.630448333333334" lon="-3.1605283333333336">
<ele>719</ele>
<time>2017-03-01T10:57:01Z</time>
</trkpt>
<trkpt lat="40.630430000000004" lon="-3.1605283333333336">
<ele>719</ele>
<time>2017-03-01T10:57:03Z</time>
</trkpt>
<trkpt lat="40.630430000000004" lon="-3.1605283333333336">
<ele>719</ele>
<time>2017-03-01T10:57:05Z</time>
</trkpt>
<trkpt lat="40.63138" lon="-3.1604516666666664">
<ele>722</ele>
<time>2017-03-01T10:53:31Z</time>
</trkpt>
<trkpt lat="40.63144166666667" lon="-3.160471666666667">
<ele>722</ele>
<time>2017-03-01T10:53:33Z</time>
</trkpt>
<trkpt lat="40.63144166666667" lon="-3.160471666666667">
<ele>722</ele>
<time>2017-03-01T10:53:35Z</time>
</trkpt>
<trkpt lat="40.63144166666667" lon="-3.160471666666667">
<ele>722</ele>
<time>2017-03-01T10:53:37Z</time>
</trkpt>
<trkpt lat="40.631425" lon="-3.16045">
<ele>721</ele>
<time>2017-03-01T10:53:39Z</time>
</trkpt>
<trkpt lat="40.631416666666674" lon="-3.1604666666666663">
<ele>721</ele>
<time>2017-03-01T10:53:41Z</time>
</trkpt>
<trkpt lat="40.63140666666666" lon="-3.160486666666667">
<ele>720</ele>
<time>2017-03-01T10:53:43Z</time>
</trkpt>
<trkpt lat="40.631393333333335" lon="-3.16049">
<ele>720</ele>
<time>2017-03-01T10:53:45Z</time>
</trkpt>
<trkpt lat="40.63142166666667" lon="-3.160543333333334">
<ele>720</ele>
<time>2017-03-01T10:53:47Z</time>
</trkpt>
<trkpt lat="40.63144666666667" lon="-3.1605633333333336">
<ele>720</ele>
<time>2017-03-01T10:53:49Z</time>
</trkpt>
<trkpt lat="40.63144666666667" lon="-3.1605633333333336">
<ele>720</ele>
<time>2017-03-01T10:53:51Z</time>
</trkpt>
<trkpt lat="40.63145" lon="-3.1605916666666665">
<ele>718</ele>
<time>2017-03-01T10:53:53Z</time>
</trkpt>
<trkpt lat="40.631438333333335" lon="-3.1606016666666665">
<ele>717</ele>
<time>2017-03-01T10:53:55Z</time>
</trkpt>
<trkpt lat="40.63145166666666" lon="-3.160698333333334">
<ele>717</ele>
<time>2017-03-01T10:53:57Z</time>
</trkpt>
<trkpt lat="40.63140333333333" lon="-3.160753333333333">
<ele>716</ele>
<time>2017-03-01T10:53:59Z</time>
</trkpt>
<trkpt lat="40.63136333333333" lon="-3.16074">
<ele>716</ele>
<time>2017-03-01T10:54:01Z</time>
</trkpt>
<trkpt lat="40.631335" lon="-3.1607049999999997">
<ele>715</ele>
<time>2017-03-01T10:54:03Z</time>
</trkpt>
<trkpt lat="40.631335" lon="-3.1607049999999997">
<ele>715</ele>
<time>2017-03-01T10:54:05Z</time>
</trkpt>
<trkpt lat="40.63132333333333" lon="-3.160661666666667">
<ele>715</ele>
<time>2017-03-01T10:54:07Z</time>
</trkpt>
<trkpt lat="40.631319999999995" lon="-3.1606383333333334">
<ele>716</ele>
<time>2017-03-01T10:54:09Z</time>
</trkpt>
<trkpt lat="40.63027666666667" lon="-3.1604283333333334">
<ele>715</ele>
<time>2017-03-01T10:57:43Z</time>
</trkpt>
<trkpt lat="40.63130833333333" lon="-3.160663333333333">
<ele>714</ele>
<time>2017-03-01T10:54:15Z</time>
</trkpt>
<trkpt lat="40.630273333333335" lon="-3.160395">
<ele>715</ele>
<time>2017-03-01T10:57:55Z</time>
</trkpt>
<trkpt lat="40.630273333333335" lon="-3.160395">
<ele>715</ele>
<time>2017-03-01T10:57:57Z</time>
</trkpt>
<trkpt lat="40.630273333333335" lon="-3.160395">
<ele>715</ele>
<time>2017-03-01T10:57:59Z</time>
</trkpt>
<trkpt lat="40.63143166666667" lon="-3.1607133333333337">
<ele>715</ele>
<time>2017-03-01T10:54:17Z</time>
</trkpt>
<trkpt lat="40.63132333333333" lon="-3.160658333333333">
<ele>715</ele>
<time>2017-03-01T10:54:19Z</time>
</trkpt>
<trkpt lat="40.631245" lon="-3.1606300000000003">
<ele>715</ele>
<time>2017-03-01T10:54:21Z</time>
</trkpt>
<trkpt lat="40.63122166666667" lon="-3.1606416666666672">
<ele>715</ele>
<time>2017-03-01T10:54:23Z</time>
</trkpt>
<trkpt lat="40.630273333333335" lon="-3.160395">
<ele>715</ele>
<time>2017-03-01T10:58:09Z</time>
</trkpt>
<trkpt lat="40.630273333333335" lon="-3.160395">
<ele>715</ele>
<time>2017-03-01T10:58:11Z</time>
</trkpt>
<trkpt lat="40.630273333333335" lon="-3.160395">
<ele>715</ele>
<time>2017-03-01T10:58:13Z</time>
</trkpt>
<trkpt lat="40.631345" lon="-3.160723333333333">
<ele>717</ele>
<time>2017-03-01T10:54:33Z</time>
</trkpt>
<trkpt lat="40.631373333333336" lon="-3.160753333333333">
<ele>718</ele>
<time>2017-03-01T10:54:35Z</time>
</trkpt>
<trkpt lat="40.63139833333333" lon="-3.160751666666667">
<ele>718</ele>
<time>2017-03-01T10:54:37Z</time>
</trkpt>
<trkpt lat="40.63139833333333" lon="-3.160751666666667">
<ele>718</ele>
<time>2017-03-01T10:54:39Z</time>
</trkpt>
<trkpt lat="40.63139833333333" lon="-3.160751666666667">
<ele>718</ele>
<time>2017-03-01T10:54:41Z</time>
</trkpt>
<trkpt lat="40.63125" lon="-3.1607049999999997">
<ele>719</ele>
<time>2017-03-01T10:54:43Z</time>
</trkpt>
<trkpt lat="40.63120666666667" lon="-3.1606466666666666">
<ele>719</ele>
<time>2017-03-01T10:54:45Z</time>
</trkpt>
<trkpt lat="40.630185" lon="-3.1604833333333335">
<ele>715</ele>
<time>2017-03-01T10:58:21Z</time>
</trkpt>
<trkpt lat="40.630176666666664" lon="-3.1605100000000004">
<ele>715</ele>
<time>2017-03-01T10:58:23Z</time>
</trkpt>
<trkpt lat="40.630176666666664" lon="-3.1605100000000004">
<ele>715</ele>
<time>2017-03-01T10:58:25Z</time>
</trkpt>
<trkpt lat="40.630176666666664" lon="-3.1605100000000004">
<ele>715</ele>
<time>2017-03-01T10:58:27Z</time>
</trkpt>
<trkpt lat="40.630176666666664" lon="-3.1605100000000004">
<ele>715</ele>
<time>2017-03-01T10:58:29Z</time>
</trkpt>
<trkpt lat="40.630176666666664" lon="-3.1605100000000004">
<ele>715</ele>
<time>2017-03-01T10:58:31Z</time>
</trkpt>
<trkpt lat="40.630176666666664" lon="-3.1605100000000004">
<ele>715</ele>
<time>2017-03-01T10:58:33Z</time>
</trkpt>
<trkpt lat="40.63118166666666" lon="-3.1606283333333334">
<ele>719</ele>
<time>2017-03-01T10:54:59Z</time>
</trkpt>
<trkpt lat="40.630176666666664" lon="-3.1605100000000004">
<ele>715</ele>
<time>2017-03-01T10:58:37Z</time>
</trkpt>
<trkpt lat="40.630176666666664" lon="-3.1605100000000004">
<ele>715</ele>
<time>2017-03-01T10:58:39Z</time>
</trkpt>
<trkpt lat="40.630176666666664" lon="-3.1605100000000004">
<ele>715</ele>
<time>2017-03-01T10:58:41Z</time>
</trkpt>
<trkpt lat="40.630176666666664" lon="-3.1605100000000004">
<ele>715</ele>
<time>2017-03-01T10:58:43Z</time>
</trkpt>
<trkpt lat="40.63118166666666" lon="-3.1606283333333334">
<ele>719</ele>
<time>2017-03-01T10:55:09Z</time>
</trkpt>
<trkpt lat="40.630176666666664" lon="-3.1605100000000004">
<ele>715</ele>
<time>2017-03-01T10:58:47Z</time>
</trkpt>
<trkpt lat="40.630176666666664" lon="-3.1605100000000004">
<ele>715</ele>
<time>2017-03-01T10:58:49Z</time>
</trkpt>
<trkpt lat="40.630176666666664" lon="-3.1605100000000004">
<ele>715</ele>
<time>2017-03-01T10:58:51Z</time>
</trkpt>
<trkpt lat="40.630205000000004" lon="-3.1606533333333338">
<ele>715</ele>
<time>2017-03-01T10:58:53Z</time>
</trkpt>
<trkpt lat="40.630228333333335" lon="-3.1608449999999997">
<ele>715</ele>
<time>2017-03-01T10:58:55Z</time>
</trkpt>
<trkpt lat="40.630215" lon="-3.160861666666667">
<ele>715</ele>
<time>2017-03-01T10:58:57Z</time>
</trkpt>
<trkpt lat="40.63024333333333" lon="-3.160785">
<ele>714</ele>
<time>2017-03-01T10:58:59Z</time>
</trkpt>
<trkpt lat="40.63025833333334" lon="-3.1606916666666667">
<ele>713</ele>
<time>2017-03-01T10:59:01Z</time>
</trkpt>
<trkpt lat="40.63024333333333" lon="-3.1606300000000003">
<ele>712</ele>
<time>2017-03-01T10:59:03Z</time>
</trkpt>
<trkpt lat="40.63023" lon="-3.1605383333333332">
<ele>713</ele>
<time>2017-03-01T10:59:05Z</time>
</trkpt>
<trkpt lat="40.63105666666667" lon="-3.160621666666666">
<ele>717</ele>
<time>2017-03-01T10:55:29Z</time>
</trkpt>
<trkpt lat="40.631049999999995" lon="-3.160616666666667">
<ele>717</ele>
<time>2017-03-01T10:55:31Z</time>
</trkpt>
<trkpt lat="40.630176666666664" lon="-3.1604816666666666">
<ele>715</ele>
<time>2017-03-01T10:59:11Z</time>
</trkpt>
<trkpt lat="40.630161666666666" lon="-3.1604666666666663">
<ele>716</ele>
<time>2017-03-01T10:59:13Z</time>
</trkpt>
<trkpt lat="40.63013" lon="-3.1604099999999997">
<ele>717</ele>
<time>2017-03-01T10:59:15Z</time>
</trkpt>
<trkpt lat="40.630118333333336" lon="-3.16039">
<ele>718</ele>
<time>2017-03-01T10:59:17Z</time>
</trkpt>
<trkpt lat="40.63009833333333" lon="-3.1603700000000003">
<ele>719</ele>
<time>2017-03-01T10:59:19Z</time>
</trkpt>
<trkpt lat="40.631049999999995" lon="-3.160616666666667">
<ele>717</ele>
<time>2017-03-01T10:55:39Z</time>
</trkpt>
<trkpt lat="40.631049999999995" lon="-3.160616666666667">
<ele>717</ele>
<time>2017-03-01T10:55:41Z</time>
</trkpt>
<trkpt lat="40.631049999999995" lon="-3.160616666666667">
<ele>717</ele>
<time>2017-03-01T10:55:43Z</time>
</trkpt>
<trkpt lat="40.63001166666666" lon="-3.160271666666667">
<ele>724</ele>
<time>2017-03-01T10:59:29Z</time>
</trkpt>
<trkpt lat="40.63001166666666" lon="-3.160271666666667">
<ele>724</ele>
<time>2017-03-01T10:59:31Z</time>
</trkpt>
<trkpt lat="40.62994833333333" lon="-3.1602616666666665">
<ele>726</ele>
<time>2017-03-01T10:59:33Z</time>
</trkpt>
<trkpt lat="40.629911666666665" lon="-3.1602683333333337">
<ele>727</ele>
<time>2017-03-01T10:59:35Z</time>
</trkpt>
<trkpt lat="40.62987666666667" lon="-3.16024">
<ele>728</ele>
<time>2017-03-01T10:59:37Z</time>
</trkpt>
<trkpt lat="40.62983666666666" lon="-3.160198333333333">
<ele>729</ele>
<time>2017-03-01T10:59:39Z</time>
</trkpt>
<trkpt lat="40.62980666666667" lon="-3.160176666666666">
<ele>730</ele>
<time>2017-03-01T10:59:41Z</time>
</trkpt>
<trkpt lat="40.62976666666667" lon="-3.1601633333333337">
<ele>731</ele>
<time>2017-03-01T10:59:43Z</time>
</trkpt>
<trkpt lat="40.63092166666667" lon="-3.1606300000000003">
<ele>722</ele>
<time>2017-03-01T10:55:53Z</time>
</trkpt>
<trkpt lat="40.629731666666665" lon="-3.160145">
<ele>733</ele>
<time>2017-03-01T10:59:47Z</time>
</trkpt>
<trkpt lat="40.63092166666667" lon="-3.1606300000000003">
<ele>722</ele>
<time>2017-03-01T10:55:55Z</time>
</trkpt>
<trkpt lat="40.63092166666667" lon="-3.1606300000000003">
<ele>722</ele>
<time>2017-03-01T10:55:57Z</time>
</trkpt>
<trkpt lat="40.63092166666667" lon="-3.1606300000000003">
<ele>722</ele>
<time>2017-03-01T10:55:59Z</time>
</trkpt>
<trkpt lat="40.629735" lon="-3.16014">
<ele>734</ele>
<time>2017-03-01T10:59:55Z</time>
</trkpt>
<trkpt lat="40.62972333333333" lon="-3.1601333333333335">
<ele>735</ele>
<time>2017-03-01T10:59:57Z</time>
</trkpt>
<trkpt lat="40.63092166666667" lon="-3.1606300000000003">
<ele>722</ele>
<time>2017-03-01T10:56:03Z</time>
</trkpt>
<trkpt lat="40.63092166666667" lon="-3.1606300000000003">
<ele>722</ele>
<time>2017-03-01T10:56:05Z</time>
</trkpt>
<trkpt lat="40.630856666666666" lon="-3.1606816666666666">
<ele>721</ele>
<time>2017-03-01T10:56:07Z</time>
</trkpt>
<trkpt lat="40.63084333333334" lon="-3.16067">
<ele>720</ele>
<time>2017-03-01T10:56:09Z</time>
</trkpt>
<trkpt lat="" lon="">
<ele></ele>
<time>2017-03-01TZ</time>
</trkpt>
</trkseg>
</trk>
<wpt lat="" lon="">
	<name></name>
	<desc></desc>
	<cmt></cmt>
	<photoid></photoid>
	<type></type>
</wpt>
</gpx>
